BAW6AC KORD-EGLL
Flight info
| Callsign | BAW6AC |
|---|---|
| Flight time | 7h 31m |
| Altitude | 37000 |
| Route | RAYNR DCT BRTMN DCT TAAYZ DCT TVC DCT NAKAL DCT SELBO DCT 53N070W/N0487F390 58N060W/M084F390 DCT TOXIT DCT 5930N05000W 60N040W 59N030W 5730N02000W DCT BILTO/N0480F390 DCT BEGID DCT LUTOV DCT NIPIT DCT MCM DCT BOFUM Q37 MALUD Q38 NUGRA |
| Aircraft | B772/H-SDE2E3FGHIJ5LORVWXY/LB1D1 |
Departure
| Time | 2026-05-04 11:55 |
|---|---|
| Airport | Chicago O'Hare International Airport (KORD) |
Arrival
| Time | 2026-05-04 19:27 |
|---|---|
| Airport | London Heathrow Airport (EGLL) |
| Time | Latitude | Longitude | Altitude | Speed | Heading |
|---|---|---|---|---|---|
| 2026-05-04 11:25 | 41.97346 | -87.89736 | 673 ft | 0 kts | 19° |
| 2026-05-04 11:45 | 41.97328 | -87.89745 | 672 ft | 4 kts | 35° |
| 2026-05-04 11:45 | 41.97313 | -87.89769 | 672 ft | 4 kts | 87° |
| 2026-05-04 11:45 | 41.97321 | -87.89799 | 669 ft | 4 kts | 139° |
| 2026-05-04 11:46 | 41.97325 | -87.89804 | 669 ft | 0 kts | 144° |
| 2026-05-04 11:48 | 41.97324 | -87.89803 | 669 ft | 1 kts | 144° |
| 2026-05-04 11:48 | 41.97319 | -87.89798 | 672 ft | 1 kts | 144° |
| 2026-05-04 11:48 | 41.97310 | -87.89789 | 671 ft | 2 kts | 144° |
| 2026-05-04 11:49 | 41.97295 | -87.89775 | 672 ft | 4 kts | 141° |
| 2026-05-04 11:49 | 41.97285 | -87.89720 | 671 ft | 9 kts | 90° |
| 2026-05-04 11:49 | 41.97300 | -87.89649 | 675 ft | 5 kts | 97° |
| 2026-05-04 11:49 | 41.97278 | -87.89603 | 673 ft | 6 kts | 148° |
| 2026-05-04 11:50 | 41.97230 | -87.89581 | 675 ft | 9 kts | 150° |
| 2026-05-04 11:50 | 41.97196 | -87.89499 | 675 ft | 11 kts | 102° |
| 2026-05-04 11:50 | 41.97195 | -87.89397 | 675 ft | 11 kts | 93° |
| 2026-05-04 11:50 | 41.97192 | -87.89295 | 675 ft | 11 kts | 89° |
| 2026-05-04 11:51 | 41.97194 | -87.89193 | 675 ft | 11 kts | 88° |
| 2026-05-04 11:51 | 41.97196 | -87.89090 | 674 ft | 11 kts | 89° |
| 2026-05-04 11:51 | 41.97196 | -87.88987 | 674 ft | 11 kts | 89° |
| 2026-05-04 11:51 | 41.97197 | -87.88885 | 674 ft | 11 kts | 91° |
| 2026-05-04 11:52 | 41.97197 | -87.88780 | 674 ft | 12 kts | 90° |
| 2026-05-04 11:52 | 41.97197 | -87.88641 | 674 ft | 18 kts | 90° |
| 2026-05-04 11:52 | 41.97196 | -87.88456 | 674 ft | 22 kts | 90° |
| 2026-05-04 11:52 | 41.97196 | -87.88250 | 675 ft | 22 kts | 89° |
| 2026-05-04 11:53 | 41.97196 | -87.88092 | 675 ft | 8 kts | 101° |
| 2026-05-04 11:53 | 41.97180 | -87.88057 | 675 ft | 7 kts | 130° |
| 2026-05-04 11:53 | 41.97098 | -87.88033 | 674 ft | 11 kts | 177° |
| 2026-05-04 11:53 | 41.97004 | -87.88029 | 674 ft | 15 kts | 178° |
| 2026-05-04 11:55 | 41.93111 | -87.92804 | 3562 ft | 196 kts | 224° |
| 2026-05-04 11:55 | 41.92253 | -87.94307 | 4241 ft | 213 kts | 249° |
| 2026-05-04 11:56 | 41.92154 | -87.96240 | 4876 ft | 215 kts | 280° |
| 2026-05-04 11:56 | 41.92623 | -87.98210 | 5453 ft | 228 kts | 285° |
| 2026-05-04 11:56 | 41.92977 | -87.99569 | 5917 ft | 236 kts | 285° |
| 2026-05-04 11:56 | 41.93670 | -88.01548 | 6501 ft | 251 kts | 306° |
| 2026-05-04 11:57 | 41.95178 | -88.02874 | 7144 ft | 275 kts | 340° |
| 2026-05-04 11:57 | 41.97145 | -88.03006 | 7816 ft | 292 kts | 5° |
| 2026-05-04 11:57 | 41.99127 | -88.02248 | 8475 ft | 299 kts | 17° |
| 2026-05-04 11:57 | 42.01042 | -88.01142 | 9130 ft | 302 kts | 21° |
| 2026-05-04 11:58 | 42.02956 | -87.99936 | 9778 ft | 304 kts | 21° |
| 2026-05-04 11:58 | 42.04870 | -87.98716 | 10396 ft | 306 kts | 21° |
| 2026-05-04 11:58 | 42.06809 | -87.97494 | 11019 ft | 317 kts | 20° |
| 2026-05-04 11:58 | 42.08859 | -87.96220 | 11569 ft | 333 kts | 20° |
| 2026-05-04 11:59 | 42.11019 | -87.94890 | 12123 ft | 348 kts | 20° |
| 2026-05-04 11:59 | 42.13274 | -87.93508 | 12683 ft | 362 kts | 20° |
| 2026-05-04 11:59 | 42.15608 | -87.92081 | 13238 ft | 373 kts | 19° |
| 2026-05-04 11:59 | 42.17979 | -87.90630 | 13765 ft | 375 kts | 19° |
| 2026-05-04 12:00 | 42.20370 | -87.89166 | 14199 ft | 379 kts | 19° |
| 2026-05-04 12:00 | 42.22777 | -87.87694 | 14684 ft | 382 kts | 19° |
| 2026-05-04 12:00 | 42.25211 | -87.86207 | 15174 ft | 385 kts | 19° |
| 2026-05-04 12:00 | 42.27663 | -87.84709 | 15672 ft | 388 kts | 19° |
| 2026-05-04 12:01 | 42.30172 | -87.83374 | 16180 ft | 389 kts | 12° |
| 2026-05-04 12:01 | 42.32807 | -87.82453 | 16686 ft | 395 kts | 6° |
| 2026-05-04 12:02 | 42.49940 | -87.80560 | 19447 ft | 418 kts | 352° |
| 2026-05-04 12:03 | 42.52849 | -87.80767 | 19905 ft | 419 kts | 352° |
| 2026-05-04 12:03 | 42.55766 | -87.80991 | 20364 ft | 421 kts | 352° |
| 2026-05-04 12:03 | 42.58708 | -87.81207 | 20819 ft | 424 kts | 352° |
| 2026-05-04 12:03 | 42.61662 | -87.81407 | 21307 ft | 426 kts | 352° |
| 2026-05-04 12:04 | 42.64634 | -87.81597 | 21779 ft | 427 kts | 352° |
| 2026-05-04 12:04 | 42.67615 | -87.81785 | 22261 ft | 429 kts | 352° |
| 2026-05-04 12:04 | 42.70606 | -87.81628 | 22717 ft | 437 kts | 5° |
| 2026-05-04 12:04 | 42.73549 | -87.80429 | 23221 ft | 449 kts | 19° |
| 2026-05-04 12:05 | 42.76277 | -87.78283 | 23657 ft | 457 kts | 33° |
| 2026-05-04 12:05 | 42.78735 | -87.75542 | 24084 ft | 459 kts | 36° |
| 2026-05-04 12:05 | 42.81177 | -87.72727 | 24523 ft | 461 kts | 36° |
| 2026-05-04 12:05 | 42.83625 | -87.69890 | 24967 ft | 462 kts | 36° |
| 2026-05-04 12:06 | 42.86075 | -87.67061 | 25396 ft | 462 kts | 36° |
| 2026-05-04 12:06 | 42.88508 | -87.64273 | 25821 ft | 463 kts | 35° |
| 2026-05-04 12:06 | 42.90984 | -87.61453 | 26186 ft | 464 kts | 35° |
| 2026-05-04 12:06 | 42.93470 | -87.58634 | 26569 ft | 465 kts | 35° |
| 2026-05-04 12:07 | 42.95966 | -87.55810 | 26960 ft | 466 kts | 35° |
| 2026-05-04 12:07 | 42.98463 | -87.52985 | 27360 ft | 466 kts | 35° |
| 2026-05-04 12:07 | 43.00960 | -87.50158 | 27772 ft | 466 kts | 35° |
| 2026-05-04 12:07 | 43.03455 | -87.47330 | 28179 ft | 465 kts | 35° |
| 2026-05-04 12:08 | 43.05943 | -87.44507 | 28582 ft | 465 kts | 35° |
| 2026-05-04 12:08 | 43.08425 | -87.41686 | 28986 ft | 464 kts | 35° |
| 2026-05-04 12:08 | 43.10905 | -87.38864 | 29356 ft | 464 kts | 35° |
| 2026-05-04 12:08 | 43.13392 | -87.36033 | 29632 ft | 465 kts | 35° |
| 2026-05-04 12:09 | 43.15878 | -87.33200 | 29893 ft | 466 kts | 35° |
| 2026-05-04 12:09 | 43.18370 | -87.30355 | 30144 ft | 466 kts | 35° |
| 2026-05-04 12:09 | 43.20865 | -87.27504 | 30415 ft | 467 kts | 34° |
| 2026-05-04 12:09 | 43.23331 | -87.24684 | 30663 ft | 467 kts | 34° |
| 2026-05-04 12:10 | 43.25828 | -87.21824 | 30917 ft | 467 kts | 34° |
| 2026-05-04 12:10 | 43.28319 | -87.18967 | 31162 ft | 467 kts | 34° |
| 2026-05-04 12:10 | 43.30811 | -87.16106 | 31416 ft | 466 kts | 34° |
| 2026-05-04 12:10 | 43.33297 | -87.13249 | 31664 ft | 466 kts | 34° |
| 2026-05-04 12:11 | 43.35783 | -87.10388 | 31928 ft | 465 kts | 34° |
| 2026-05-04 12:11 | 43.38255 | -87.07541 | 32189 ft | 464 kts | 34° |
| 2026-05-04 12:11 | 43.40727 | -87.04691 | 32465 ft | 463 kts | 34° |
| 2026-05-04 12:11 | 43.43186 | -87.01852 | 32726 ft | 461 kts | 34° |
| 2026-05-04 12:12 | 43.45582 | -86.99083 | 32987 ft | 460 kts | 34° |
| 2026-05-04 12:12 | 43.48030 | -86.96251 | 33247 ft | 459 kts | 34° |
| 2026-05-04 12:12 | 43.50473 | -86.93422 | 33528 ft | 457 kts | 34° |
| 2026-05-04 12:12 | 43.52863 | -86.90651 | 33784 ft | 455 kts | 34° |
| 2026-05-04 12:13 | 43.55281 | -86.87845 | 33998 ft | 453 kts | 34° |
| 2026-05-04 12:14 | 43.71911 | -86.68462 | 35642 ft | 439 kts | 34° |
| 2026-05-04 12:15 | 43.74236 | -86.65740 | 35886 ft | 437 kts | 34° |
| 2026-05-04 12:15 | 43.76550 | -86.63029 | 36100 ft | 434 kts | 34° |
| 2026-05-04 12:15 | 43.78845 | -86.60336 | 36375 ft | 431 kts | 34° |
| 2026-05-04 12:15 | 43.81124 | -86.57660 | 36570 ft | 429 kts | 34° |
| 2026-05-04 12:16 | 43.85676 | -86.52316 | 36653 ft | 435 kts | 34° |
| 2026-05-04 12:16 | 43.90342 | -86.46827 | 36657 ft | 444 kts | 34° |
| 2026-05-04 12:17 | 43.95096 | -86.41217 | 36652 ft | 453 kts | 34° |
| 2026-05-04 12:17 | 43.99941 | -86.35482 | 36653 ft | 462 kts | 34° |
| 2026-05-04 12:18 | 44.04866 | -86.29640 | 36656 ft | 470 kts | 34° |
| 2026-05-04 12:18 | 44.09881 | -86.23675 | 36649 ft | 477 kts | 34° |
| 2026-05-04 12:19 | 44.14920 | -86.17669 | 36662 ft | 483 kts | 35° |
| 2026-05-04 12:19 | 44.20047 | -86.11542 | 36644 ft | 488 kts | 34° |
| 2026-05-04 12:20 | 44.25214 | -86.05353 | 36644 ft | 490 kts | 35° |
| 2026-05-04 12:20 | 44.30323 | -85.99219 | 36645 ft | 491 kts | 35° |
| 2026-05-04 12:21 | 44.35491 | -85.92998 | 36647 ft | 491 kts | 35° |
| 2026-05-04 12:21 | 44.40659 | -85.86765 | 36630 ft | 490 kts | 35° |
| 2026-05-04 12:22 | 44.45804 | -85.80543 | 36629 ft | 488 kts | 35° |
| 2026-05-04 12:22 | 44.50930 | -85.74332 | 36622 ft | 486 kts | 35° |
| 2026-05-04 12:23 | 44.56043 | -85.68120 | 36619 ft | 486 kts | 35° |
| 2026-05-04 12:23 | 44.61148 | -85.61904 | 36612 ft | 486 kts | 35° |
| 2026-05-04 12:24 | 44.66244 | -85.55631 | 36609 ft | 488 kts | 37° |
| 2026-05-04 12:24 | 44.70828 | -85.48552 | 36619 ft | 494 kts | 44° |
| 2026-05-04 12:25 | 44.75227 | -85.41084 | 36622 ft | 496 kts | 45° |
| 2026-05-04 12:25 | 44.79627 | -85.33607 | 36594 ft | 496 kts | 44° |
| 2026-05-04 12:26 | 44.84057 | -85.26138 | 36627 ft | 496 kts | 44° |
| 2026-05-04 12:26 | 44.88483 | -85.18694 | 36621 ft | 496 kts | 44° |
| 2026-05-04 12:27 | 44.92890 | -85.11264 | 36614 ft | 497 kts | 44° |
| 2026-05-04 12:27 | 44.97322 | -85.03770 | 36618 ft | 497 kts | 44° |
| 2026-05-04 12:28 | 45.01695 | -84.96355 | 36603 ft | 498 kts | 44° |
| 2026-05-04 12:28 | 45.06119 | -84.88830 | 36594 ft | 497 kts | 44° |
| 2026-05-04 12:29 | 45.10538 | -84.81294 | 36610 ft | 498 kts | 44° |
| 2026-05-04 12:29 | 45.14957 | -84.73740 | 36607 ft | 498 kts | 45° |
| 2026-05-04 12:30 | 45.19375 | -84.66166 | 36621 ft | 499 kts | 45° |
| 2026-05-04 12:30 | 45.23791 | -84.58574 | 36624 ft | 499 kts | 45° |
| 2026-05-04 12:31 | 45.28203 | -84.50969 | 36622 ft | 499 kts | 45° |
| 2026-05-04 12:31 | 45.32615 | -84.43344 | 36608 ft | 500 kts | 45° |
| 2026-05-04 12:32 | 45.39230 | -84.31873 | 36604 ft | 500 kts | 45° |
| 2026-05-04 12:33 | 45.43607 | -84.24257 | 36635 ft | 500 kts | 45° |
| 2026-05-04 12:33 | 45.48012 | -84.16573 | 36613 ft | 501 kts | 45° |
| 2026-05-04 12:34 | 45.52416 | -84.08866 | 36603 ft | 501 kts | 45° |
| 2026-05-04 12:34 | 45.56810 | -84.01157 | 36625 ft | 500 kts | 45° |
| 2026-05-04 12:35 | 45.61149 | -83.93524 | 36603 ft | 500 kts | 45° |
| 2026-05-04 12:35 | 45.65541 | -83.85781 | 36619 ft | 504 kts | 45° |
| 2026-05-04 12:36 | 45.69972 | -83.77946 | 36614 ft | 508 kts | 45° |
| 2026-05-04 12:36 | 45.74393 | -83.70103 | 36634 ft | 511 kts | 45° |
| 2026-05-04 12:37 | 45.78862 | -83.62151 | 36621 ft | 512 kts | 45° |
| 2026-05-04 12:37 | 45.83332 | -83.54175 | 36621 ft | 513 kts | 46° |
| 2026-05-04 12:38 | 45.87794 | -83.46191 | 36610 ft | 512 kts | 46° |
| 2026-05-04 12:38 | 45.92234 | -83.38224 | 36620 ft | 510 kts | 46° |
| 2026-05-04 12:39 | 45.96660 | -83.30260 | 36625 ft | 509 kts | 46° |
| 2026-05-04 12:39 | 46.01070 | -83.22304 | 36637 ft | 508 kts | 46° |
| 2026-05-04 12:40 | 46.05468 | -83.14345 | 36632 ft | 507 kts | 46° |
| 2026-05-04 12:40 | 46.09852 | -83.06392 | 36635 ft | 506 kts | 46° |
| 2026-05-04 12:41 | 46.14430 | -82.98940 | 36643 ft | 501 kts | 40° |
| 2026-05-04 12:41 | 46.19250 | -82.91749 | 36647 ft | 501 kts | 40° |
| 2026-05-04 12:42 | 46.24098 | -82.84518 | 36645 ft | 502 kts | 40° |
| 2026-05-04 12:42 | 46.28942 | -82.77212 | 36665 ft | 502 kts | 40° |
| 2026-05-04 12:43 | 46.33767 | -82.69876 | 36674 ft | 503 kts | 41° |
| 2026-05-04 12:43 | 46.38584 | -82.62525 | 36654 ft | 504 kts | 41° |
| 2026-05-04 12:44 | 46.43404 | -82.55153 | 36656 ft | 504 kts | 41° |
| 2026-05-04 12:44 | 46.48197 | -82.47802 | 36655 ft | 504 kts | 41° |
| 2026-05-04 12:45 | 46.53013 | -82.40398 | 36652 ft | 504 kts | 41° |
| 2026-05-04 12:45 | 46.57820 | -82.32988 | 36655 ft | 504 kts | 41° |
| 2026-05-04 12:46 | 46.61813 | -82.26819 | 36654 ft | 504 kts | 41° |
| 2026-05-04 12:46 | 46.66604 | -82.19394 | 36647 ft | 503 kts | 41° |
| 2026-05-04 12:47 | 46.71391 | -82.11956 | 36673 ft | 503 kts | 41° |
| 2026-05-04 12:47 | 46.76173 | -82.04506 | 36644 ft | 503 kts | 41° |
| 2026-05-04 12:48 | 46.80888 | -81.97141 | 36635 ft | 502 kts | 41° |
| 2026-05-04 12:48 | 46.85626 | -81.89717 | 36641 ft | 502 kts | 41° |
| 2026-05-04 12:49 | 46.90386 | -81.82240 | 36660 ft | 502 kts | 42° |
| 2026-05-04 12:49 | 46.95140 | -81.74750 | 36657 ft | 502 kts | 42° |
| 2026-05-04 12:50 | 46.99887 | -81.67251 | 36648 ft | 502 kts | 42° |
| 2026-05-04 12:50 | 47.04621 | -81.59749 | 36644 ft | 502 kts | 42° |
| 2026-05-04 12:51 | 47.09357 | -81.52225 | 36648 ft | 501 kts | 42° |
| 2026-05-04 12:51 | 47.14058 | -81.44736 | 36640 ft | 501 kts | 42° |
| 2026-05-04 12:52 | 47.18786 | -81.37181 | 36639 ft | 501 kts | 42° |
| 2026-05-04 12:52 | 47.23500 | -81.29627 | 36631 ft | 501 kts | 42° |
| 2026-05-04 12:53 | 47.28214 | -81.22054 | 36639 ft | 502 kts | 43° |
| 2026-05-04 12:53 | 47.32924 | -81.14465 | 36630 ft | 502 kts | 43° |
| 2026-05-04 12:54 | 47.37638 | -81.06848 | 36628 ft | 502 kts | 43° |
| 2026-05-04 12:54 | 47.42278 | -80.99328 | 36630 ft | 502 kts | 43° |
| 2026-05-04 12:55 | 47.46949 | -80.91737 | 36637 ft | 502 kts | 43° |
| 2026-05-04 12:55 | 47.51646 | -80.84081 | 36628 ft | 502 kts | 43° |
| 2026-05-04 12:56 | 47.56329 | -80.76425 | 36623 ft | 501 kts | 44° |
| 2026-05-04 12:56 | 47.61003 | -80.68762 | 36618 ft | 501 kts | 44° |
| 2026-05-04 12:57 | 47.65668 | -80.61092 | 36610 ft | 500 kts | 44° |
| 2026-05-04 12:57 | 47.70314 | -80.53432 | 36615 ft | 498 kts | 44° |
| 2026-05-04 12:58 | 47.74936 | -80.45790 | 36606 ft | 496 kts | 44° |
| 2026-05-04 12:58 | 47.79542 | -80.38152 | 36603 ft | 495 kts | 44° |
| 2026-05-04 12:59 | 47.84106 | -80.30563 | 36614 ft | 495 kts | 44° |
| 2026-05-04 12:59 | 47.88689 | -80.22921 | 36610 ft | 495 kts | 44° |
| 2026-05-04 13:00 | 47.93268 | -80.15262 | 36602 ft | 495 kts | 44° |
| 2026-05-04 13:00 | 47.97843 | -80.07588 | 36612 ft | 495 kts | 45° |
| 2026-05-04 13:01 | 48.02404 | -79.99916 | 36619 ft | 497 kts | 45° |
| 2026-05-04 13:01 | 48.06953 | -79.92242 | 36608 ft | 498 kts | 45° |
| 2026-05-04 13:02 | 48.11547 | -79.84468 | 36612 ft | 498 kts | 45° |
| 2026-05-04 13:02 | 48.16105 | -79.76733 | 36611 ft | 499 kts | 45° |
| 2026-05-04 13:03 | 48.20698 | -79.68916 | 36617 ft | 499 kts | 45° |
| 2026-05-04 13:03 | 48.25288 | -79.61080 | 36615 ft | 500 kts | 45° |
| 2026-05-04 13:04 | 48.29879 | -79.53219 | 36605 ft | 500 kts | 45° |
| 2026-05-04 13:04 | 48.34462 | -79.45351 | 36612 ft | 500 kts | 45° |
| 2026-05-04 13:05 | 48.39039 | -79.37467 | 36608 ft | 500 kts | 45° |
| 2026-05-04 13:05 | 48.43584 | -79.29617 | 36606 ft | 500 kts | 45° |
| 2026-05-04 13:06 | 48.48145 | -79.21715 | 36608 ft | 500 kts | 45° |
| 2026-05-04 13:06 | 48.52701 | -79.13797 | 36613 ft | 500 kts | 45° |
| 2026-05-04 13:07 | 48.57253 | -79.05863 | 36631 ft | 500 kts | 45° |
| 2026-05-04 13:07 | 48.61758 | -78.97990 | 36623 ft | 501 kts | 45° |
| 2026-05-04 13:08 | 48.66313 | -78.90003 | 36615 ft | 501 kts | 46° |
| 2026-05-04 13:08 | 48.70821 | -78.82075 | 36620 ft | 502 kts | 46° |
| 2026-05-04 13:09 | 48.75369 | -78.74052 | 36639 ft | 502 kts | 46° |
| 2026-05-04 13:09 | 48.79913 | -78.66012 | 36621 ft | 502 kts | 46° |
| 2026-05-04 13:10 | 48.84458 | -78.57946 | 36616 ft | 502 kts | 46° |
| 2026-05-04 13:10 | 48.88992 | -78.49873 | 36628 ft | 502 kts | 46° |
| 2026-05-04 13:11 | 48.93531 | -78.41769 | 36631 ft | 502 kts | 46° |
| 2026-05-04 13:11 | 48.98051 | -78.33672 | 36632 ft | 502 kts | 46° |
| 2026-05-04 13:12 | 49.02541 | -78.25607 | 36631 ft | 502 kts | 47° |
| 2026-05-04 13:12 | 49.07055 | -78.17471 | 36630 ft | 502 kts | 47° |
| 2026-05-04 13:13 | 49.11566 | -78.09314 | 36625 ft | 502 kts | 47° |
| 2026-05-04 13:13 | 49.16063 | -78.01163 | 36637 ft | 502 kts | 47° |
| 2026-05-04 13:14 | 49.20525 | -77.93092 | 36638 ft | 502 kts | 47° |
| 2026-05-04 13:14 | 49.25021 | -77.84994 | 36631 ft | 502 kts | 47° |
| 2026-05-04 13:15 | 49.29529 | -77.76848 | 36630 ft | 501 kts | 47° |
| 2026-05-04 13:15 | 49.34032 | -77.68679 | 36627 ft | 501 kts | 47° |
| 2026-05-04 13:16 | 49.38524 | -77.60496 | 36645 ft | 501 kts | 47° |
| 2026-05-04 13:16 | 49.43012 | -77.52295 | 36644 ft | 501 kts | 47° |
| 2026-05-04 13:17 | 49.47488 | -77.44089 | 36624 ft | 501 kts | 47° |
| 2026-05-04 13:17 | 49.51941 | -77.35903 | 36641 ft | 501 kts | 48° |
| 2026-05-04 13:18 | 49.56351 | -77.27767 | 36624 ft | 490 kts | 48° |
| 2026-05-04 13:18 | 49.60703 | -77.19715 | 36639 ft | 489 kts | 48° |
| 2026-05-04 13:19 | 49.65065 | -77.11623 | 36641 ft | 491 kts | 48° |
| 2026-05-04 13:19 | 49.69427 | -77.03505 | 36651 ft | 492 kts | 49° |
| 2026-05-04 13:20 | 49.73743 | -76.95445 | 36637 ft | 492 kts | 49° |
| 2026-05-04 13:20 | 49.78070 | -76.87341 | 36640 ft | 491 kts | 49° |
| 2026-05-04 13:21 | 49.82415 | -76.79178 | 36640 ft | 490 kts | 49° |
| 2026-05-04 13:21 | 49.86748 | -76.71011 | 36637 ft | 490 kts | 49° |
| 2026-05-04 13:22 | 49.91068 | -76.62844 | 36649 ft | 490 kts | 49° |
| 2026-05-04 13:22 | 49.95385 | -76.54658 | 36643 ft | 490 kts | 49° |
| 2026-05-04 13:23 | 49.99665 | -76.46517 | 36646 ft | 490 kts | 49° |
| 2026-05-04 13:23 | 50.03973 | -76.38296 | 36645 ft | 490 kts | 49° |
| 2026-05-04 13:24 | 50.08302 | -76.30008 | 36658 ft | 490 kts | 50° |
| 2026-05-04 13:24 | 50.12568 | -76.21816 | 36654 ft | 490 kts | 50° |
| 2026-05-04 13:25 | 50.19012 | -76.09393 | 36656 ft | 490 kts | 50° |
| 2026-05-04 13:25 | 50.23305 | -76.01083 | 36656 ft | 490 kts | 50° |
| 2026-05-04 13:26 | 50.27501 | -75.92935 | 36653 ft | 490 kts | 50° |
| 2026-05-04 13:26 | 50.31772 | -75.84617 | 36651 ft | 490 kts | 50° |
| 2026-05-04 13:27 | 50.36039 | -75.76280 | 36650 ft | 490 kts | 50° |
| 2026-05-04 13:27 | 50.40293 | -75.67940 | 36652 ft | 490 kts | 50° |
| 2026-05-04 13:28 | 50.44551 | -75.59566 | 36660 ft | 490 kts | 51° |
| 2026-05-04 13:28 | 50.48800 | -75.51182 | 36654 ft | 491 kts | 51° |
| 2026-05-04 13:29 | 50.53045 | -75.42780 | 36655 ft | 491 kts | 51° |
| 2026-05-04 13:29 | 50.57291 | -75.34349 | 36660 ft | 491 kts | 51° |
| 2026-05-04 13:30 | 50.61527 | -75.25910 | 36661 ft | 491 kts | 51° |
| 2026-05-04 13:30 | 50.65733 | -75.17505 | 36661 ft | 492 kts | 51° |
| 2026-05-04 13:31 | 50.69960 | -75.09030 | 36662 ft | 492 kts | 51° |
| 2026-05-04 13:31 | 50.74188 | -75.00524 | 36663 ft | 492 kts | 51° |
| 2026-05-04 13:32 | 50.78352 | -74.92120 | 36665 ft | 492 kts | 51° |
| 2026-05-04 13:32 | 50.82566 | -74.83588 | 36671 ft | 492 kts | 52° |
| 2026-05-04 13:33 | 50.86769 | -74.75048 | 36669 ft | 491 kts | 52° |
| 2026-05-04 13:33 | 50.90939 | -74.66550 | 36675 ft | 491 kts | 52° |
| 2026-05-04 13:34 | 50.95123 | -74.57994 | 36672 ft | 491 kts | 52° |
| 2026-05-04 13:34 | 50.99299 | -74.49428 | 36680 ft | 490 kts | 52° |
| 2026-05-04 13:35 | 51.05553 | -74.36546 | 36683 ft | 491 kts | 52° |
| 2026-05-04 13:36 | 51.09717 | -74.27931 | 36683 ft | 491 kts | 52° |
| 2026-05-04 13:36 | 51.13877 | -74.19297 | 36692 ft | 491 kts | 53° |
| 2026-05-04 13:37 | 51.18006 | -74.10697 | 36687 ft | 491 kts | 53° |
| 2026-05-04 13:37 | 51.22152 | -74.02038 | 36698 ft | 491 kts | 53° |
| 2026-05-04 13:38 | 51.25546 | -73.94926 | 36704 ft | 491 kts | 53° |
| 2026-05-04 13:38 | 51.29679 | -73.86235 | 36699 ft | 491 kts | 53° |
| 2026-05-04 13:39 | 51.33805 | -73.77533 | 36700 ft | 491 kts | 53° |
| 2026-05-04 13:39 | 51.37928 | -73.68809 | 36714 ft | 492 kts | 53° |
| 2026-05-04 13:40 | 51.42051 | -73.60053 | 36709 ft | 492 kts | 53° |
| 2026-05-04 13:40 | 51.46171 | -73.51274 | 36708 ft | 492 kts | 54° |
| 2026-05-04 13:41 | 51.50249 | -73.42558 | 36845 ft | 479 kts | 54° |
| 2026-05-04 13:41 | 51.54227 | -73.34028 | 36778 ft | 477 kts | 54° |
| 2026-05-04 13:42 | 51.60165 | -73.21234 | 36716 ft | 478 kts | 54° |
| 2026-05-04 13:42 | 51.64140 | -73.12636 | 36720 ft | 479 kts | 54° |
| 2026-05-04 13:43 | 51.68109 | -73.04024 | 36715 ft | 479 kts | 54° |
| 2026-05-04 13:43 | 51.72018 | -72.95513 | 36717 ft | 479 kts | 54° |
| 2026-05-04 13:44 | 51.75976 | -72.86867 | 36717 ft | 478 kts | 54° |
| 2026-05-04 13:44 | 51.79925 | -72.78211 | 36723 ft | 478 kts | 55° |
| 2026-05-04 13:45 | 51.83839 | -72.69602 | 36709 ft | 478 kts | 55° |
| 2026-05-04 13:45 | 51.87771 | -72.60925 | 36719 ft | 477 kts | 55° |
| 2026-05-04 13:46 | 51.91690 | -72.52250 | 36728 ft | 477 kts | 55° |
| 2026-05-04 13:46 | 51.95600 | -72.43565 | 36727 ft | 477 kts | 55° |
| 2026-05-04 13:47 | 51.99501 | -72.34868 | 36726 ft | 477 kts | 55° |
| 2026-05-04 13:47 | 52.03395 | -72.26157 | 36727 ft | 477 kts | 55° |
| 2026-05-04 13:48 | 52.07266 | -72.17471 | 36727 ft | 478 kts | 56° |
| 2026-05-04 13:48 | 52.11158 | -72.08706 | 36723 ft | 478 kts | 56° |
| 2026-05-04 13:49 | 52.15039 | -71.99936 | 36709 ft | 478 kts | 56° |
| 2026-05-04 13:49 | 52.18883 | -71.91220 | 36724 ft | 478 kts | 56° |
| 2026-05-04 13:50 | 52.22754 | -71.82414 | 36718 ft | 478 kts | 56° |
| 2026-05-04 13:50 | 52.26618 | -71.73594 | 36719 ft | 478 kts | 56° |
| 2026-05-04 13:51 | 52.30474 | -71.64760 | 36739 ft | 477 kts | 56° |
| 2026-05-04 13:51 | 52.34323 | -71.55912 | 36716 ft | 477 kts | 56° |
| 2026-05-04 13:52 | 52.40059 | -71.42670 | 36730 ft | 477 kts | 56° |
| 2026-05-04 13:53 | 52.43889 | -71.33790 | 36712 ft | 477 kts | 56° |
| 2026-05-04 13:53 | 52.47713 | -71.24891 | 36719 ft | 477 kts | 57° |
| 2026-05-04 13:54 | 52.53433 | -71.11526 | 36714 ft | 477 kts | 57° |
| 2026-05-04 13:55 | 52.59085 | -70.98246 | 36725 ft | 476 kts | 57° |
| 2026-05-04 13:55 | 52.64770 | -70.84823 | 36721 ft | 476 kts | 57° |
| 2026-05-04 13:56 | 52.68554 | -70.75846 | 36713 ft | 476 kts | 57° |
| 2026-05-04 13:57 | 52.74187 | -70.62427 | 36723 ft | 476 kts | 58° |
| 2026-05-04 13:58 | 52.81702 | -70.44412 | 36715 ft | 476 kts | 58° |
| 2026-05-04 13:58 | 52.87325 | -70.30849 | 36715 ft | 476 kts | 58° |
| 2026-05-04 13:59 | 52.91063 | -70.21791 | 36732 ft | 476 kts | 58° |
| 2026-05-04 14:00 | 52.96654 | -70.08185 | 36725 ft | 476 kts | 58° |
| 2026-05-04 14:00 | 53.02712 | -69.95307 | 36718 ft | 479 kts | 47° |
| 2026-05-04 14:01 | 53.07445 | -69.87603 | 36720 ft | 479 kts | 46° |
| 2026-05-04 14:02 | 53.14627 | -69.75964 | 36707 ft | 480 kts | 47° |
| 2026-05-04 14:02 | 53.19374 | -69.68148 | 36717 ft | 479 kts | 47° |
| 2026-05-04 14:03 | 53.24102 | -69.60305 | 36709 ft | 478 kts | 47° |
| 2026-05-04 14:03 | 53.28784 | -69.52508 | 36706 ft | 477 kts | 47° |
| 2026-05-04 14:04 | 53.35817 | -69.40754 | 36707 ft | 476 kts | 47° |
| 2026-05-04 14:04 | 53.40493 | -69.32908 | 36706 ft | 475 kts | 48° |
| 2026-05-04 14:05 | 53.47497 | -69.21107 | 36708 ft | 475 kts | 48° |
| 2026-05-04 14:06 | 53.52164 | -69.13213 | 36713 ft | 476 kts | 48° |
| 2026-05-04 14:06 | 53.56824 | -69.05301 | 36709 ft | 476 kts | 48° |
| 2026-05-04 14:07 | 53.61429 | -68.97460 | 36713 ft | 476 kts | 48° |
| 2026-05-04 14:07 | 53.66056 | -68.89555 | 36693 ft | 477 kts | 49° |
| 2026-05-04 14:08 | 53.70708 | -68.81580 | 36706 ft | 477 kts | 49° |
| 2026-05-04 14:08 | 53.75355 | -68.73587 | 36709 ft | 477 kts | 49° |
| 2026-05-04 14:09 | 53.82321 | -68.61554 | 36708 ft | 477 kts | 49° |
| 2026-05-04 14:10 | 53.89263 | -68.49505 | 36694 ft | 475 kts | 49° |
| 2026-05-04 14:10 | 53.93872 | -68.41469 | 36702 ft | 475 kts | 49° |
| 2026-05-04 14:11 | 53.98451 | -68.33458 | 36705 ft | 475 kts | 49° |
| 2026-05-04 14:11 | 54.05352 | -68.21335 | 36710 ft | 475 kts | 49° |
| 2026-05-04 14:12 | 54.09943 | -68.13236 | 36711 ft | 475 kts | 49° |
| 2026-05-04 14:13 | 54.16823 | -68.01047 | 36709 ft | 475 kts | 50° |
| 2026-05-04 14:13 | 54.21349 | -67.92994 | 36734 ft | 476 kts | 50° |
| 2026-05-04 14:14 | 54.25935 | -67.84806 | 36692 ft | 477 kts | 50° |
| 2026-05-04 14:14 | 54.32797 | -67.72505 | 36721 ft | 476 kts | 50° |
| 2026-05-04 14:15 | 54.41913 | -67.56062 | 36726 ft | 475 kts | 50° |
| 2026-05-04 14:16 | 54.48739 | -67.43673 | 36717 ft | 476 kts | 51° |
| 2026-05-04 14:17 | 54.55562 | -67.31225 | 36733 ft | 477 kts | 51° |
| 2026-05-04 14:18 | 54.62365 | -67.18751 | 36719 ft | 478 kts | 51° |
| 2026-05-04 14:19 | 54.71477 | -67.01941 | 36687 ft | 479 kts | 51° |
| 2026-05-04 14:19 | 54.75969 | -66.93608 | 36677 ft | 479 kts | 51° |
| 2026-05-04 14:20 | 54.80508 | -66.85160 | 36675 ft | 479 kts | 51° |
| 2026-05-04 14:20 | 54.85047 | -66.76681 | 36757 ft | 479 kts | 52° |
| 2026-05-04 14:21 | 54.91809 | -66.63993 | 36754 ft | 479 kts | 52° |
| 2026-05-04 14:21 | 54.96328 | -66.55481 | 36749 ft | 479 kts | 52° |
| 2026-05-04 14:22 | 55.00836 | -66.46956 | 36753 ft | 478 kts | 52° |
| 2026-05-04 14:22 | 55.05338 | -66.38410 | 36754 ft | 478 kts | 52° |
| 2026-05-04 14:23 | 55.12068 | -66.25582 | 36742 ft | 477 kts | 53° |
| 2026-05-04 14:24 | 55.16536 | -66.17024 | 36752 ft | 476 kts | 53° |
| 2026-05-04 14:24 | 55.20239 | -66.09909 | 36754 ft | 475 kts | 53° |
| 2026-05-04 14:25 | 55.24691 | -66.01327 | 36750 ft | 475 kts | 53° |
| 2026-05-04 14:25 | 55.32023 | -65.87125 | 36756 ft | 474 kts | 54° |
| 2026-05-04 14:26 | 55.35733 | -65.79906 | 36754 ft | 474 kts | 54° |
| 2026-05-04 14:26 | 55.40116 | -65.71349 | 36756 ft | 474 kts | 54° |
| 2026-05-04 14:27 | 55.44528 | -65.62707 | 36759 ft | 474 kts | 54° |
| 2026-05-04 14:27 | 55.48935 | -65.54043 | 36749 ft | 474 kts | 54° |
| 2026-05-04 14:28 | 55.53329 | -65.45372 | 36755 ft | 474 kts | 54° |
| 2026-05-04 14:28 | 55.57716 | -65.36683 | 36750 ft | 474 kts | 54° |
| 2026-05-04 14:29 | 55.66450 | -65.19292 | 36752 ft | 474 kts | 54° |
| 2026-05-04 14:30 | 55.70808 | -65.10569 | 36757 ft | 471 kts | 54° |
| 2026-05-04 14:31 | 55.77263 | -64.97585 | 36755 ft | 470 kts | 54° |
| 2026-05-04 14:32 | 55.85873 | -64.80156 | 36752 ft | 468 kts | 55° |
| 2026-05-04 14:32 | 55.90165 | -64.71419 | 36743 ft | 468 kts | 55° |
| 2026-05-04 14:33 | 55.94452 | -64.62661 | 36747 ft | 469 kts | 55° |
| 2026-05-04 14:33 | 55.98718 | -64.53912 | 36763 ft | 470 kts | 55° |
| 2026-05-04 14:34 | 56.03008 | -64.45086 | 36751 ft | 471 kts | 55° |
| 2026-05-04 14:34 | 56.07302 | -64.36217 | 36753 ft | 471 kts | 55° |
| 2026-05-04 14:35 | 56.11588 | -64.27333 | 36747 ft | 471 kts | 55° |
| 2026-05-04 14:35 | 56.15866 | -64.18433 | 36740 ft | 471 kts | 55° |
| 2026-05-04 14:36 | 56.20134 | -64.09521 | 36749 ft | 470 kts | 56° |
| 2026-05-04 14:36 | 56.24385 | -64.00608 | 36741 ft | 469 kts | 56° |
| 2026-05-04 14:37 | 56.28570 | -63.91802 | 36708 ft | 469 kts | 56° |
| 2026-05-04 14:37 | 56.32795 | -63.82880 | 36733 ft | 468 kts | 56° |
| 2026-05-04 14:38 | 56.37011 | -63.73944 | 36742 ft | 468 kts | 56° |
| 2026-05-04 14:38 | 56.41221 | -63.64984 | 36741 ft | 468 kts | 56° |
| 2026-05-04 14:39 | 56.45426 | -63.56002 | 36744 ft | 468 kts | 56° |
| 2026-05-04 14:39 | 56.49599 | -63.47058 | 36745 ft | 468 kts | 56° |
| 2026-05-04 14:40 | 56.55895 | -63.33495 | 36760 ft | 469 kts | 56° |
| 2026-05-04 14:40 | 56.57995 | -63.28957 | 36862 ft | 468 kts | 56° |
| 2026-05-04 14:40 | 56.60087 | -63.24426 | 36978 ft | 468 kts | 56° |
| 2026-05-04 14:41 | 56.64266 | -63.15344 | 37178 ft | 469 kts | 56° |
| 2026-05-04 14:41 | 56.68442 | -63.06238 | 37368 ft | 469 kts | 56° |
| 2026-05-04 14:42 | 56.72545 | -62.97257 | 37575 ft | 470 kts | 56° |
| 2026-05-04 14:42 | 56.74633 | -62.92675 | 37708 ft | 470 kts | 56° |
| 2026-05-04 14:42 | 56.76720 | -62.88085 | 37806 ft | 470 kts | 56° |
| 2026-05-04 14:43 | 56.80883 | -62.78905 | 38013 ft | 469 kts | 56° |
| 2026-05-04 14:43 | 56.82957 | -62.74317 | 38132 ft | 469 kts | 56° |
| 2026-05-04 14:43 | 56.85031 | -62.69720 | 38233 ft | 469 kts | 55° |
| 2026-05-04 14:44 | 56.89177 | -62.60506 | 38401 ft | 469 kts | 55° |
| 2026-05-04 14:44 | 56.91242 | -62.55901 | 38513 ft | 469 kts | 55° |
| 2026-05-04 14:44 | 56.93310 | -62.51282 | 38594 ft | 469 kts | 55° |
| 2026-05-04 14:45 | 56.97446 | -62.42017 | 38723 ft | 470 kts | 55° |
| 2026-05-04 14:45 | 57.01582 | -62.32716 | 38784 ft | 471 kts | 55° |
| 2026-05-04 14:46 | 57.05726 | -62.23362 | 38798 ft | 473 kts | 55° |
| 2026-05-04 14:46 | 57.09871 | -62.13967 | 38797 ft | 473 kts | 55° |
| 2026-05-04 14:47 | 57.14007 | -62.04561 | 38810 ft | 473 kts | 56° |
| 2026-05-04 14:47 | 57.18081 | -61.95257 | 38810 ft | 472 kts | 56° |
| 2026-05-04 14:48 | 57.22196 | -61.85819 | 38817 ft | 471 kts | 56° |
| 2026-05-04 14:48 | 57.26268 | -61.76446 | 38790 ft | 471 kts | 56° |
| 2026-05-04 14:49 | 57.30356 | -61.66997 | 38816 ft | 470 kts | 56° |
| 2026-05-04 14:49 | 57.34445 | -61.57507 | 38818 ft | 471 kts | 56° |
| 2026-05-04 14:50 | 57.38535 | -61.47979 | 38817 ft | 472 kts | 56° |
| 2026-05-04 14:50 | 57.42621 | -61.38420 | 38817 ft | 473 kts | 56° |
| 2026-05-04 14:51 | 57.46709 | -61.28822 | 38801 ft | 474 kts | 56° |
| 2026-05-04 14:51 | 57.50762 | -61.19265 | 38790 ft | 474 kts | 56° |
| 2026-05-04 14:52 | 57.54841 | -61.09610 | 38803 ft | 475 kts | 56° |
| 2026-05-04 14:52 | 57.58912 | -60.99931 | 38802 ft | 476 kts | 56° |
| 2026-05-04 14:53 | 57.62947 | -60.90303 | 38806 ft | 476 kts | 56° |
| 2026-05-04 14:53 | 57.67026 | -60.80528 | 38809 ft | 476 kts | 56° |
| 2026-05-04 14:54 | 57.71093 | -60.70744 | 38812 ft | 477 kts | 56° |
| 2026-05-04 14:54 | 57.75151 | -60.60938 | 38797 ft | 477 kts | 57° |
| 2026-05-04 14:55 | 57.79203 | -60.51108 | 38796 ft | 476 kts | 57° |
| 2026-05-04 14:55 | 57.83247 | -60.41257 | 38794 ft | 476 kts | 57° |
| 2026-05-04 14:56 | 57.87276 | -60.31401 | 38787 ft | 476 kts | 57° |
| 2026-05-04 14:56 | 57.91269 | -60.21593 | 38793 ft | 475 kts | 57° |
| 2026-05-04 14:57 | 57.95289 | -60.11677 | 38804 ft | 476 kts | 57° |
| 2026-05-04 14:57 | 57.99298 | -60.01760 | 38789 ft | 476 kts | 56° |
| 2026-05-04 14:58 | 58.03653 | -59.92484 | 38801 ft | 480 kts | 51° |
| 2026-05-04 14:58 | 58.08289 | -59.83382 | 38801 ft | 481 kts | 50° |
| 2026-05-04 14:59 | 58.12917 | -59.74256 | 38797 ft | 481 kts | 51° |
| 2026-05-04 15:00 | 58.19804 | -59.60458 | 38795 ft | 480 kts | 51° |
| 2026-05-04 15:00 | 58.24374 | -59.51224 | 38785 ft | 479 kts | 51° |
| 2026-05-04 15:01 | 58.31174 | -59.37419 | 38794 ft | 479 kts | 51° |
| 2026-05-04 15:01 | 58.35726 | -59.28134 | 38790 ft | 480 kts | 51° |
| 2026-05-04 15:02 | 58.40275 | -59.18818 | 38788 ft | 480 kts | 51° |
| 2026-05-04 15:02 | 58.44818 | -59.09477 | 38790 ft | 481 kts | 51° |
| 2026-05-04 15:03 | 58.49361 | -59.00097 | 38798 ft | 480 kts | 51° |
| 2026-05-04 15:03 | 58.53839 | -58.90816 | 38795 ft | 480 kts | 51° |
| 2026-05-04 15:04 | 58.58360 | -58.81405 | 38797 ft | 480 kts | 51° |
| 2026-05-04 15:04 | 58.62878 | -58.71962 | 38796 ft | 480 kts | 51° |
| 2026-05-04 15:05 | 58.67349 | -58.62577 | 38789 ft | 479 kts | 51° |
| 2026-05-04 15:05 | 58.71845 | -58.53103 | 38801 ft | 479 kts | 51° |
| 2026-05-04 15:06 | 58.76331 | -58.43609 | 38801 ft | 479 kts | 51° |
| 2026-05-04 15:07 | 58.83055 | -58.29305 | 38806 ft | 480 kts | 52° |
| 2026-05-04 15:07 | 58.87526 | -58.19745 | 38790 ft | 480 kts | 51° |
| 2026-05-04 15:08 | 58.91996 | -58.10150 | 38808 ft | 480 kts | 51° |
| 2026-05-04 15:08 | 58.95888 | -57.99883 | 38810 ft | 471 kts | 68° |
| 2026-05-04 15:09 | 58.97996 | -57.88167 | 38821 ft | 460 kts | 84° |
| 2026-05-04 15:09 | 58.99138 | -57.76018 | 38811 ft | 461 kts | 84° |
| 2026-05-04 15:10 | 59.00810 | -57.57630 | 38821 ft | 463 kts | 84° |
| 2026-05-04 15:11 | 59.02541 | -57.39132 | 38818 ft | 465 kts | 84° |
| 2026-05-04 15:11 | 59.03695 | -57.26787 | 38824 ft | 465 kts | 84° |
| 2026-05-04 15:12 | 59.04834 | -57.14472 | 38822 ft | 465 kts | 84° |
| 2026-05-04 15:12 | 59.05781 | -57.04108 | 38824 ft | 465 kts | 84° |
| 2026-05-04 15:13 | 59.07066 | -56.89889 | 38812 ft | 464 kts | 84° |
| 2026-05-04 15:13 | 59.08168 | -56.77537 | 38839 ft | 463 kts | 84° |
| 2026-05-04 15:14 | 59.09077 | -56.67244 | 38817 ft | 463 kts | 84° |
| 2026-05-04 15:14 | 59.10157 | -56.54888 | 38825 ft | 462 kts | 84° |
| 2026-05-04 15:15 | 59.11224 | -56.42538 | 38836 ft | 462 kts | 84° |
| 2026-05-04 15:15 | 59.12278 | -56.30188 | 38839 ft | 463 kts | 84° |
| 2026-05-04 15:16 | 59.13833 | -56.11703 | 38843 ft | 464 kts | 84° |
| 2026-05-04 15:17 | 59.15359 | -55.93242 | 38832 ft | 463 kts | 85° |
| 2026-05-04 15:17 | 59.16870 | -55.74631 | 38838 ft | 463 kts | 85° |
| 2026-05-04 15:18 | 59.17862 | -55.62217 | 38843 ft | 463 kts | 85° |
| 2026-05-04 15:19 | 59.19317 | -55.43710 | 38848 ft | 462 kts | 85° |
| 2026-05-04 15:19 | 59.20754 | -55.25085 | 38858 ft | 462 kts | 85° |
| 2026-05-04 15:20 | 59.21698 | -55.12656 | 38869 ft | 463 kts | 85° |
| 2026-05-04 15:20 | 59.22631 | -55.00196 | 38854 ft | 464 kts | 85° |
| 2026-05-04 15:21 | 59.23541 | -54.87899 | 38859 ft | 463 kts | 85° |
| 2026-05-04 15:22 | 59.24893 | -54.69307 | 38852 ft | 462 kts | 85° |
| 2026-05-04 15:22 | 59.26222 | -54.50635 | 38872 ft | 463 kts | 86° |
| 2026-05-04 15:23 | 59.27095 | -54.38157 | 38871 ft | 463 kts | 86° |
| 2026-05-04 15:23 | 59.27956 | -54.25675 | 38873 ft | 462 kts | 86° |
| 2026-05-04 15:24 | 59.29636 | -54.00790 | 38879 ft | 462 kts | 86° |
| 2026-05-04 15:25 | 59.30450 | -53.88456 | 38882 ft | 463 kts | 86° |
| 2026-05-04 15:26 | 59.31669 | -53.69634 | 38892 ft | 465 kts | 86° |
| 2026-05-04 15:26 | 59.32866 | -53.50737 | 38902 ft | 467 kts | 86° |
| 2026-05-04 15:27 | 59.34033 | -53.31845 | 38891 ft | 468 kts | 86° |
| 2026-05-04 15:28 | 59.35180 | -53.12856 | 38905 ft | 467 kts | 86° |
| 2026-05-04 15:29 | 59.36285 | -52.94083 | 38909 ft | 465 kts | 87° |
| 2026-05-04 15:30 | 59.38767 | -52.50032 | 38906 ft | 464 kts | 87° |
| 2026-05-04 15:31 | 59.39787 | -52.31098 | 38924 ft | 466 kts | 87° |
| 2026-05-04 15:32 | 59.41424 | -51.99571 | 38932 ft | 469 kts | 87° |
| 2026-05-04 15:34 | 59.43008 | -51.67548 | 38951 ft | 472 kts | 88° |
| 2026-05-04 15:34 | 59.43923 | -51.48273 | 38949 ft | 472 kts | 88° |
| 2026-05-04 15:35 | 59.44809 | -51.29010 | 38962 ft | 472 kts | 88° |
| 2026-05-04 15:36 | 59.45663 | -51.09802 | 38961 ft | 473 kts | 88° |
| 2026-05-04 15:36 | 59.46214 | -50.97049 | 38981 ft | 474 kts | 88° |
| 2026-05-04 15:37 | 59.46761 | -50.84109 | 38981 ft | 475 kts | 88° |
| 2026-05-04 15:37 | 59.47295 | -50.71149 | 38958 ft | 476 kts | 88° |
| 2026-05-04 15:38 | 59.47815 | -50.58228 | 38983 ft | 476 kts | 88° |
| 2026-05-04 15:38 | 59.48325 | -50.45243 | 38989 ft | 476 kts | 88° |
| 2026-05-04 15:39 | 59.48822 | -50.32255 | 38985 ft | 476 kts | 88° |
| 2026-05-04 15:40 | 59.49546 | -50.12737 | 38993 ft | 477 kts | 88° |
| 2026-05-04 15:40 | 59.50034 | -49.99781 | 39005 ft | 478 kts | 86° |
| 2026-05-04 15:41 | 59.51063 | -49.86995 | 39011 ft | 480 kts | 82° |
| 2026-05-04 15:41 | 59.52244 | -49.74047 | 38994 ft | 480 kts | 82° |
| 2026-05-04 15:42 | 59.53403 | -49.61078 | 39005 ft | 480 kts | 82° |
| 2026-05-04 15:42 | 59.54527 | -49.48083 | 39028 ft | 481 kts | 82° |
| 2026-05-04 15:43 | 59.55626 | -49.35066 | 39019 ft | 482 kts | 82° |
| 2026-05-04 15:43 | 59.56713 | -49.22023 | 39039 ft | 483 kts | 82° |
| 2026-05-04 15:44 | 59.57793 | -49.08916 | 39043 ft | 484 kts | 82° |
| 2026-05-04 15:44 | 59.58843 | -48.96023 | 39038 ft | 485 kts | 82° |
| 2026-05-04 15:45 | 59.59902 | -48.82845 | 39039 ft | 485 kts | 82° |
| 2026-05-04 15:45 | 59.60945 | -48.69697 | 39042 ft | 485 kts | 82° |
| 2026-05-04 15:46 | 59.61974 | -48.56543 | 39057 ft | 485 kts | 82° |
| 2026-05-04 15:46 | 59.62995 | -48.43320 | 39065 ft | 487 kts | 82° |
| 2026-05-04 15:47 | 59.64007 | -48.30041 | 39066 ft | 489 kts | 82° |
| 2026-05-04 15:47 | 59.65003 | -48.16776 | 39074 ft | 491 kts | 82° |
| 2026-05-04 15:48 | 59.65992 | -48.03421 | 39067 ft | 491 kts | 82° |
| 2026-05-04 15:48 | 59.67441 | -47.83503 | 39079 ft | 490 kts | 83° |
| 2026-05-04 15:49 | 59.68395 | -47.70124 | 39067 ft | 492 kts | 82° |
| 2026-05-04 15:49 | 59.69342 | -47.56673 | 39097 ft | 494 kts | 82° |
| 2026-05-04 15:50 | 59.70273 | -47.43239 | 39106 ft | 497 kts | 82° |
| 2026-05-04 15:50 | 59.71201 | -47.29637 | 39109 ft | 499 kts | 82° |
| 2026-05-04 15:51 | 59.72117 | -47.15990 | 39106 ft | 500 kts | 82° |
| 2026-05-04 15:51 | 59.73019 | -47.02339 | 39099 ft | 499 kts | 83° |
| 2026-05-04 15:52 | 59.73893 | -46.88882 | 39117 ft | 499 kts | 82° |
| 2026-05-04 15:52 | 59.74768 | -46.75215 | 39115 ft | 500 kts | 82° |
| 2026-05-04 15:53 | 59.75628 | -46.61537 | 39115 ft | 500 kts | 82° |
| 2026-05-04 15:53 | 59.76475 | -46.47833 | 39125 ft | 501 kts | 82° |
| 2026-05-04 15:54 | 59.77309 | -46.34100 | 39130 ft | 501 kts | 82° |
| 2026-05-04 15:54 | 59.78129 | -46.20360 | 39137 ft | 501 kts | 83° |
| 2026-05-04 15:55 | 59.78934 | -46.06602 | 39149 ft | 503 kts | 82° |
| 2026-05-04 15:55 | 59.79720 | -45.92947 | 39151 ft | 504 kts | 82° |
| 2026-05-04 15:56 | 59.80498 | -45.79168 | 39157 ft | 506 kts | 82° |
| 2026-05-04 15:56 | 59.81268 | -45.65264 | 39157 ft | 507 kts | 83° |
| 2026-05-04 15:57 | 59.82025 | -45.51318 | 39155 ft | 507 kts | 83° |
| 2026-05-04 15:57 | 59.82766 | -45.37382 | 39160 ft | 506 kts | 83° |
| 2026-05-04 15:58 | 59.83492 | -45.23448 | 39165 ft | 505 kts | 82° |
| 2026-05-04 15:58 | 59.84200 | -45.09578 | 39160 ft | 503 kts | 82° |
| 2026-05-04 15:59 | 59.84877 | -44.96033 | 39168 ft | 501 kts | 83° |
| 2026-05-04 15:59 | 59.85551 | -44.82263 | 39171 ft | 500 kts | 83° |
| 2026-05-04 16:00 | 59.86212 | -44.68470 | 39173 ft | 500 kts | 83° |
| 2026-05-04 16:00 | 59.86857 | -44.54692 | 39196 ft | 500 kts | 83° |
| 2026-05-04 16:01 | 59.87489 | -44.40882 | 39176 ft | 501 kts | 83° |
| 2026-05-04 16:01 | 59.88106 | -44.27070 | 39173 ft | 501 kts | 83° |
| 2026-05-04 16:02 | 59.88709 | -44.13241 | 39189 ft | 501 kts | 83° |
| 2026-05-04 16:03 | 59.89575 | -43.92777 | 39188 ft | 500 kts | 83° |
| 2026-05-04 16:03 | 59.90142 | -43.78983 | 39205 ft | 500 kts | 83° |
| 2026-05-04 16:04 | 59.90692 | -43.65165 | 39227 ft | 500 kts | 83° |
| 2026-05-04 16:04 | 59.91399 | -43.46851 | 39213 ft | 495 kts | 83° |
| 2026-05-04 16:05 | 59.91909 | -43.33241 | 39209 ft | 490 kts | 83° |
| 2026-05-04 16:06 | 59.92641 | -43.13015 | 39226 ft | 485 kts | 84° |
| 2026-05-04 16:07 | 59.93560 | -42.86340 | 39247 ft | 487 kts | 84° |
| 2026-05-04 16:08 | 59.94435 | -42.59287 | 39239 ft | 490 kts | 84° |
| 2026-05-04 16:09 | 59.95453 | -42.25359 | 39243 ft | 489 kts | 84° |
| 2026-05-04 16:10 | 59.96198 | -41.98457 | 39232 ft | 489 kts | 84° |
| 2026-05-04 16:11 | 59.96896 | -41.71249 | 39249 ft | 492 kts | 85° |
| 2026-05-04 16:12 | 59.97842 | -41.30226 | 39235 ft | 493 kts | 85° |
| 2026-05-04 16:13 | 59.98399 | -41.02976 | 39239 ft | 491 kts | 85° |
| 2026-05-04 16:14 | 59.98897 | -40.75899 | 39228 ft | 489 kts | 86° |
| 2026-05-04 16:16 | 59.99443 | -40.42005 | 39234 ft | 489 kts | 86° |
| 2026-05-04 16:17 | 59.99906 | -40.07980 | 39233 ft | 490 kts | 86° |
| 2026-05-04 16:18 | 59.98932 | -39.80942 | 39234 ft | 492 kts | 96° |
| 2026-05-04 16:19 | 59.96723 | -39.47135 | 39228 ft | 492 kts | 96° |
| 2026-05-04 16:20 | 59.94519 | -39.13233 | 39231 ft | 493 kts | 96° |
| 2026-05-04 16:22 | 59.92243 | -38.79633 | 39228 ft | 493 kts | 97° |
| 2026-05-04 16:23 | 59.89375 | -38.39059 | 39230 ft | 492 kts | 97° |
| 2026-05-04 16:25 | 59.86399 | -37.98778 | 39223 ft | 492 kts | 97° |
| 2026-05-04 16:26 | 59.82762 | -37.51747 | 39233 ft | 492 kts | 98° |
| 2026-05-04 16:28 | 59.80066 | -37.18275 | 39232 ft | 492 kts | 98° |
| 2026-05-04 16:29 | 59.76155 | -36.71560 | 39249 ft | 492 kts | 99° |
| 2026-05-04 16:31 | 59.73253 | -36.38189 | 39245 ft | 490 kts | 99° |
| 2026-05-04 16:32 | 59.69682 | -35.98476 | 39248 ft | 490 kts | 100° |
| 2026-05-04 16:33 | 59.67221 | -35.71892 | 39251 ft | 491 kts | 100° |
| 2026-05-04 16:34 | 59.65346 | -35.52049 | 39253 ft | 491 kts | 100° |
| 2026-05-04 16:35 | 59.61488 | -35.12232 | 39259 ft | 491 kts | 101° |
| 2026-05-04 16:36 | 59.59533 | -34.92555 | 39266 ft | 491 kts | 101° |
| 2026-05-04 16:37 | 59.57542 | -34.72834 | 39255 ft | 490 kts | 101° |
| 2026-05-04 16:38 | 59.54833 | -34.46498 | 39266 ft | 490 kts | 101° |
| 2026-05-04 16:39 | 59.51364 | -34.13560 | 39272 ft | 491 kts | 101° |
| 2026-05-04 16:40 | 59.48553 | -33.87467 | 39275 ft | 491 kts | 102° |
| 2026-05-04 16:41 | 59.44933 | -33.54629 | 39294 ft | 491 kts | 102° |
| 2026-05-04 16:43 | 59.41279 | -33.22281 | 39274 ft | 477 kts | 102° |
| 2026-05-04 16:43 | 59.39081 | -33.03181 | 39292 ft | 479 kts | 102° |
| 2026-05-04 16:45 | 59.34606 | -32.65107 | 39311 ft | 481 kts | 103° |
| 2026-05-04 16:46 | 59.30772 | -32.33285 | 39290 ft | 478 kts | 103° |
| 2026-05-04 16:47 | 59.27666 | -32.08023 | 39293 ft | 477 kts | 103° |
| 2026-05-04 16:48 | 59.24537 | -31.83001 | 39294 ft | 477 kts | 103° |
| 2026-05-04 16:49 | 59.21341 | -31.57880 | 39298 ft | 478 kts | 104° |
| 2026-05-04 16:50 | 59.18359 | -31.34825 | 39296 ft | 479 kts | 104° |
| 2026-05-04 16:51 | 59.15886 | -31.15963 | 39292 ft | 478 kts | 104° |
| 2026-05-04 16:52 | 59.12571 | -30.91044 | 39297 ft | 478 kts | 104° |
| 2026-05-04 16:53 | 59.10039 | -30.72281 | 39297 ft | 478 kts | 104° |
| 2026-05-04 16:54 | 59.06633 | -30.47392 | 39289 ft | 477 kts | 105° |
| 2026-05-04 16:55 | 59.01430 | -30.10097 | 39295 ft | 477 kts | 105° |
| 2026-05-04 16:56 | 58.97706 | -29.79010 | 39296 ft | 476 kts | 101° |
| 2026-05-04 16:57 | 58.95704 | -29.60151 | 39292 ft | 476 kts | 101° |
| 2026-05-04 16:58 | 58.92949 | -29.35106 | 39289 ft | 475 kts | 102° |
| 2026-05-04 17:00 | 58.88742 | -28.97869 | 39289 ft | 475 kts | 102° |
| 2026-05-04 17:01 | 58.85136 | -28.66722 | 39288 ft | 474 kts | 102° |
| 2026-05-04 17:02 | 58.82209 | -28.41957 | 39284 ft | 474 kts | 103° |
| 2026-05-04 17:03 | 58.79977 | -28.23360 | 39293 ft | 474 kts | 103° |
| 2026-05-04 17:03 | 58.77718 | -28.04791 | 39278 ft | 474 kts | 103° |
| 2026-05-04 17:04 | 58.74690 | -27.80267 | 39282 ft | 473 kts | 103° |
| 2026-05-04 17:05 | 58.71597 | -27.55636 | 39284 ft | 473 kts | 103° |
| 2026-05-04 17:06 | 58.69246 | -27.37198 | 39280 ft | 473 kts | 104° |
| 2026-05-04 17:07 | 58.67136 | -27.20838 | 39279 ft | 474 kts | 104° |
| 2026-05-04 17:07 | 58.65265 | -27.06481 | 39281 ft | 474 kts | 104° |
| 2026-05-04 17:08 | 58.62860 | -26.88224 | 39278 ft | 474 kts | 104° |
| 2026-05-04 17:09 | 58.61227 | -26.75950 | 39277 ft | 475 kts | 104° |
| 2026-05-04 17:09 | 58.59583 | -26.63701 | 39274 ft | 475 kts | 104° |
| 2026-05-04 17:10 | 58.55432 | -26.33187 | 39268 ft | 474 kts | 104° |
| 2026-05-04 17:11 | 58.53752 | -26.21004 | 39272 ft | 473 kts | 104° |
| 2026-05-04 17:12 | 58.51209 | -26.02745 | 39266 ft | 473 kts | 105° |
| 2026-05-04 17:13 | 58.46942 | -25.72577 | 39275 ft | 473 kts | 105° |
| 2026-05-04 17:14 | 58.43452 | -25.48314 | 39276 ft | 473 kts | 105° |
| 2026-05-04 17:15 | 58.40816 | -25.30230 | 39271 ft | 473 kts | 105° |
| 2026-05-04 17:16 | 58.37248 | -25.06070 | 39272 ft | 473 kts | 105° |
| 2026-05-04 17:17 | 58.33657 | -24.82102 | 39265 ft | 474 kts | 106° |
| 2026-05-04 17:18 | 58.29998 | -24.58034 | 39268 ft | 473 kts | 106° |
| 2026-05-04 17:19 | 58.26306 | -24.34095 | 39258 ft | 473 kts | 106° |
| 2026-05-04 17:20 | 58.22556 | -24.10120 | 39268 ft | 473 kts | 107° |
| 2026-05-04 17:20 | 58.19739 | -23.92324 | 39250 ft | 474 kts | 107° |
| 2026-05-04 17:21 | 58.15909 | -23.68429 | 39256 ft | 474 kts | 107° |
| 2026-05-04 17:22 | 58.13979 | -23.56511 | 39257 ft | 474 kts | 107° |
| 2026-05-04 17:23 | 58.10094 | -23.32759 | 39264 ft | 474 kts | 107° |
| 2026-05-04 17:24 | 58.07140 | -23.14917 | 39252 ft | 474 kts | 107° |
| 2026-05-04 17:25 | 58.03178 | -22.91261 | 39253 ft | 474 kts | 108° |
| 2026-05-04 17:26 | 57.99175 | -22.67671 | 39252 ft | 473 kts | 108° |
| 2026-05-04 17:27 | 57.94092 | -22.38158 | 39247 ft | 474 kts | 108° |
| 2026-05-04 17:28 | 57.89974 | -22.14589 | 39247 ft | 474 kts | 108° |
| 2026-05-04 17:29 | 57.83749 | -21.79528 | 39244 ft | 474 kts | 108° |
| 2026-05-04 17:31 | 57.78363 | -21.49720 | 39251 ft | 494 kts | 109° |
| 2026-05-04 17:32 | 57.72697 | -21.18864 | 39245 ft | 510 kts | 109° |
| 2026-05-04 17:33 | 57.68033 | -20.93836 | 39239 ft | 515 kts | 109° |
| 2026-05-04 17:34 | 57.63273 | -20.68626 | 39227 ft | 514 kts | 109° |
| 2026-05-04 17:35 | 57.57300 | -20.37454 | 39224 ft | 508 kts | 110° |
| 2026-05-04 17:36 | 57.54922 | -20.25177 | 39230 ft | 506 kts | 110° |
| 2026-05-04 17:36 | 57.52519 | -20.12848 | 39234 ft | 506 kts | 110° |
| 2026-05-04 17:37 | 57.50105 | -20.00534 | 39225 ft | 507 kts | 110° |
| 2026-05-04 17:37 | 57.47847 | -19.88318 | 39227 ft | 507 kts | 108° |
| 2026-05-04 17:38 | 57.45686 | -19.75848 | 39213 ft | 507 kts | 108° |
| 2026-05-04 17:38 | 57.43510 | -19.63391 | 39223 ft | 507 kts | 108° |
| 2026-05-04 17:39 | 57.40178 | -19.44765 | 39231 ft | 508 kts | 108° |
| 2026-05-04 17:39 | 57.37925 | -19.32341 | 39222 ft | 508 kts | 108° |
| 2026-05-04 17:40 | 57.36045 | -19.22032 | 39221 ft | 508 kts | 108° |
| 2026-05-04 17:40 | 57.33772 | -19.09634 | 39218 ft | 509 kts | 109° |
| 2026-05-04 17:41 | 57.31514 | -18.97397 | 39217 ft | 509 kts | 109° |
| 2026-05-04 17:41 | 57.29216 | -18.85021 | 39213 ft | 509 kts | 109° |
| 2026-05-04 17:42 | 57.26919 | -18.72731 | 39215 ft | 509 kts | 109° |
| 2026-05-04 17:42 | 57.24596 | -18.60383 | 39210 ft | 509 kts | 109° |
| 2026-05-04 17:43 | 57.22261 | -18.48049 | 39210 ft | 509 kts | 109° |
| 2026-05-04 17:43 | 57.19911 | -18.35721 | 39209 ft | 509 kts | 109° |
| 2026-05-04 17:44 | 57.17553 | -18.23423 | 39209 ft | 508 kts | 109° |
| 2026-05-04 17:44 | 57.15182 | -18.11141 | 39203 ft | 508 kts | 109° |
| 2026-05-04 17:45 | 57.12849 | -17.99128 | 39218 ft | 508 kts | 109° |
| 2026-05-04 17:45 | 57.10458 | -17.86894 | 39211 ft | 508 kts | 110° |
| 2026-05-04 17:46 | 57.08056 | -17.74677 | 39212 ft | 508 kts | 110° |
| 2026-05-04 17:46 | 57.05642 | -17.62481 | 39207 ft | 508 kts | 110° |
| 2026-05-04 17:47 | 57.03215 | -17.50294 | 39207 ft | 508 kts | 110° |
| 2026-05-04 17:47 | 57.00775 | -17.38114 | 39204 ft | 507 kts | 110° |
| 2026-05-04 17:48 | 56.98333 | -17.25999 | 39210 ft | 507 kts | 110° |
| 2026-05-04 17:48 | 56.95876 | -17.13883 | 39198 ft | 507 kts | 110° |
| 2026-05-04 17:49 | 56.93404 | -17.01772 | 39198 ft | 507 kts | 110° |
| 2026-05-04 17:49 | 56.90958 | -16.89855 | 39199 ft | 507 kts | 110° |
| 2026-05-04 17:50 | 56.88462 | -16.77766 | 39198 ft | 507 kts | 111° |
| 2026-05-04 17:50 | 56.85958 | -16.65712 | 39199 ft | 507 kts | 111° |
| 2026-05-04 17:51 | 56.83443 | -16.53677 | 39200 ft | 507 kts | 111° |
| 2026-05-04 17:51 | 56.80914 | -16.41652 | 39190 ft | 507 kts | 111° |
| 2026-05-04 17:52 | 56.78377 | -16.29652 | 39192 ft | 507 kts | 111° |
| 2026-05-04 17:52 | 56.75830 | -16.17680 | 39190 ft | 507 kts | 111° |
| 2026-05-04 17:53 | 56.73282 | -16.05774 | 39189 ft | 506 kts | 111° |
| 2026-05-04 17:53 | 56.70749 | -15.94003 | 39183 ft | 506 kts | 111° |
| 2026-05-04 17:54 | 56.68166 | -15.82066 | 39189 ft | 506 kts | 111° |
| 2026-05-04 17:54 | 56.65573 | -15.70154 | 39171 ft | 506 kts | 112° |
| 2026-05-04 17:55 | 56.62968 | -15.58260 | 39181 ft | 506 kts | 112° |
| 2026-05-04 17:55 | 56.60373 | -15.46470 | 39180 ft | 506 kts | 112° |
| 2026-05-04 17:56 | 56.57752 | -15.34633 | 39179 ft | 505 kts | 112° |
| 2026-05-04 17:56 | 56.55121 | -15.22817 | 39180 ft | 505 kts | 112° |
| 2026-05-04 17:57 | 56.52480 | -15.11010 | 39178 ft | 505 kts | 112° |
| 2026-05-04 17:57 | 56.50521 | -14.98984 | 39177 ft | 505 kts | 99° |
| 2026-05-04 17:58 | 56.49900 | -14.86367 | 39170 ft | 504 kts | 89° |
| 2026-05-04 17:58 | 56.49988 | -14.73674 | 39160 ft | 504 kts | 88° |
| 2026-05-04 17:59 | 56.50076 | -14.61087 | 39166 ft | 504 kts | 89° |
| 2026-05-04 18:00 | 56.50094 | -14.42041 | 39165 ft | 504 kts | 89° |
| 2026-05-04 18:00 | 56.50078 | -14.29331 | 39167 ft | 505 kts | 89° |
| 2026-05-04 18:01 | 56.50055 | -14.16619 | 39161 ft | 505 kts | 89° |
| 2026-05-04 18:01 | 56.49710 | -14.03933 | 39149 ft | 506 kts | 100° |
| 2026-05-04 18:02 | 56.47741 | -13.91917 | 39162 ft | 505 kts | 115° |
| 2026-05-04 18:02 | 56.46166 | -13.86230 | 39162 ft | 504 kts | 118° |
| 2026-05-04 18:02 | 56.42826 | -13.75074 | 39158 ft | 505 kts | 119° |
| 2026-05-04 18:03 | 56.39492 | -13.63994 | 39152 ft | 505 kts | 119° |
| 2026-05-04 18:03 | 56.36173 | -13.52820 | 39143 ft | 505 kts | 118° |
| 2026-05-04 18:04 | 56.32868 | -13.41644 | 39144 ft | 505 kts | 118° |
| 2026-05-04 18:05 | 56.27894 | -13.24911 | 39154 ft | 505 kts | 119° |
| 2026-05-04 18:05 | 56.24561 | -13.13776 | 39144 ft | 505 kts | 119° |
| 2026-05-04 18:06 | 56.19592 | -12.97280 | 39144 ft | 505 kts | 119° |
| 2026-05-04 18:06 | 56.16241 | -12.86221 | 39129 ft | 504 kts | 119° |
| 2026-05-04 18:07 | 56.12901 | -12.75247 | 39138 ft | 504 kts | 119° |
| 2026-05-04 18:07 | 56.09538 | -12.64250 | 39139 ft | 503 kts | 119° |
| 2026-05-04 18:08 | 56.06166 | -12.53273 | 39140 ft | 503 kts | 120° |
| 2026-05-04 18:08 | 56.02783 | -12.42312 | 39136 ft | 502 kts | 120° |
| 2026-05-04 18:09 | 55.96003 | -12.20499 | 39119 ft | 502 kts | 120° |
| 2026-05-04 18:10 | 55.92626 | -12.09706 | 39130 ft | 501 kts | 120° |
| 2026-05-04 18:10 | 55.89267 | -11.99021 | 39131 ft | 501 kts | 120° |
| 2026-05-04 18:11 | 55.85849 | -11.88197 | 39131 ft | 501 kts | 120° |
| 2026-05-04 18:11 | 55.82427 | -11.77407 | 39128 ft | 501 kts | 120° |
| 2026-05-04 18:12 | 55.78988 | -11.66615 | 39129 ft | 501 kts | 120° |
| 2026-05-04 18:12 | 55.75543 | -11.55853 | 39123 ft | 501 kts | 120° |
| 2026-05-04 18:13 | 55.72112 | -11.45179 | 39130 ft | 500 kts | 120° |
| 2026-05-04 18:14 | 55.66923 | -11.29132 | 39129 ft | 500 kts | 120° |
| 2026-05-04 18:14 | 55.63457 | -11.18468 | 39127 ft | 500 kts | 121° |
| 2026-05-04 18:15 | 55.56540 | -10.97334 | 39127 ft | 500 kts | 121° |
| 2026-05-04 18:16 | 55.53046 | -10.86728 | 39122 ft | 500 kts | 121° |
| 2026-05-04 18:16 | 55.49540 | -10.76132 | 39125 ft | 499 kts | 121° |
| 2026-05-04 18:17 | 55.44266 | -10.60278 | 39120 ft | 499 kts | 121° |
| 2026-05-04 18:18 | 55.38972 | -10.44469 | 39124 ft | 500 kts | 121° |
| 2026-05-04 18:18 | 55.35447 | -10.33997 | 39122 ft | 500 kts | 121° |
| 2026-05-04 18:19 | 55.30120 | -10.18256 | 39118 ft | 499 kts | 122° |
| 2026-05-04 18:19 | 55.26562 | -10.07794 | 39119 ft | 499 kts | 122° |
| 2026-05-04 18:20 | 55.22882 | -9.97697 | 39130 ft | 497 kts | 129° |
| 2026-05-04 18:20 | 55.18459 | -9.88382 | 39125 ft | 496 kts | 132° |
| 2026-05-04 18:21 | 55.13970 | -9.79191 | 39117 ft | 497 kts | 131° |
| 2026-05-04 18:21 | 55.09501 | -9.69984 | 39122 ft | 496 kts | 131° |
| 2026-05-04 18:22 | 55.05041 | -9.60757 | 39114 ft | 496 kts | 131° |
| 2026-05-04 18:22 | 55.00589 | -9.51564 | 39114 ft | 496 kts | 131° |
| 2026-05-04 18:23 | 54.96161 | -9.42460 | 39114 ft | 496 kts | 131° |
| 2026-05-04 18:23 | 54.91693 | -9.33312 | 39121 ft | 495 kts | 131° |
| 2026-05-04 18:24 | 54.87229 | -9.24209 | 39120 ft | 495 kts | 131° |
| 2026-05-04 18:24 | 54.82763 | -9.15134 | 39117 ft | 494 kts | 131° |
| 2026-05-04 18:25 | 54.78293 | -9.06084 | 39111 ft | 493 kts | 131° |
| 2026-05-04 18:25 | 54.73885 | -8.97194 | 39114 ft | 493 kts | 132° |
| 2026-05-04 18:26 | 54.69416 | -8.88212 | 39117 ft | 493 kts | 132° |
| 2026-05-04 18:26 | 54.64942 | -8.79252 | 39112 ft | 491 kts | 131° |
| 2026-05-04 18:27 | 54.60500 | -8.70392 | 39116 ft | 491 kts | 131° |
| 2026-05-04 18:27 | 54.56022 | -8.61491 | 39120 ft | 490 kts | 132° |
| 2026-05-04 18:28 | 54.51557 | -8.52643 | 39121 ft | 490 kts | 132° |
| 2026-05-04 18:28 | 54.47832 | -8.45288 | 39119 ft | 490 kts | 132° |
| 2026-05-04 18:29 | 54.43099 | -8.34389 | 39107 ft | 489 kts | 121° |
| 2026-05-04 18:29 | 54.39609 | -8.24347 | 39106 ft | 489 kts | 121° |
| 2026-05-04 18:30 | 54.34955 | -8.11011 | 39104 ft | 489 kts | 121° |
| 2026-05-04 18:31 | 54.31415 | -8.01028 | 39105 ft | 489 kts | 122° |
| 2026-05-04 18:31 | 54.27924 | -7.91256 | 39100 ft | 489 kts | 122° |
| 2026-05-04 18:32 | 54.24365 | -7.81334 | 39093 ft | 489 kts | 121° |
| 2026-05-04 18:32 | 54.20831 | -7.71515 | 39097 ft | 487 kts | 121° |
| 2026-05-04 18:33 | 54.17279 | -7.61680 | 39084 ft | 486 kts | 121° |
| 2026-05-04 18:33 | 54.13728 | -7.51886 | 39091 ft | 485 kts | 121° |
| 2026-05-04 18:34 | 54.10169 | -7.42113 | 39093 ft | 485 kts | 121° |
| 2026-05-04 18:34 | 54.06604 | -7.32359 | 39096 ft | 485 kts | 121° |
| 2026-05-04 18:35 | 54.03027 | -7.22609 | 39087 ft | 485 kts | 122° |
| 2026-05-04 18:35 | 53.99449 | -7.12895 | 39085 ft | 485 kts | 121° |
| 2026-05-04 18:36 | 53.95866 | -7.03203 | 39087 ft | 484 kts | 121° |
| 2026-05-04 18:36 | 53.92347 | -6.93719 | 39086 ft | 484 kts | 121° |
| 2026-05-04 18:37 | 53.89213 | -6.83618 | 39083 ft | 483 kts | 112° |
| 2026-05-04 18:37 | 53.86537 | -6.73133 | 39090 ft | 485 kts | 112° |
| 2026-05-04 18:38 | 53.83846 | -6.62621 | 39081 ft | 486 kts | 112° |
| 2026-05-04 18:38 | 53.81133 | -6.52205 | 39087 ft | 488 kts | 112° |
| 2026-05-04 18:39 | 53.78364 | -6.41681 | 39082 ft | 490 kts | 113° |
| 2026-05-04 18:39 | 53.75577 | -6.31149 | 39080 ft | 491 kts | 113° |
| 2026-05-04 18:40 | 53.72777 | -6.20602 | 39083 ft | 492 kts | 113° |
| 2026-05-04 18:40 | 53.69965 | -6.10060 | 39082 ft | 493 kts | 113° |
| 2026-05-04 18:41 | 53.67177 | -5.99656 | 39087 ft | 493 kts | 113° |
| 2026-05-04 18:41 | 53.64340 | -5.89115 | 39078 ft | 493 kts | 113° |
| 2026-05-04 18:42 | 53.61495 | -5.78592 | 39079 ft | 493 kts | 113° |
| 2026-05-04 18:42 | 53.58666 | -5.68173 | 39080 ft | 492 kts | 114° |
| 2026-05-04 18:43 | 53.55828 | -5.57725 | 39083 ft | 490 kts | 112° |
| 2026-05-04 18:43 | 53.53890 | -5.46793 | 39085 ft | 487 kts | 99° |
| 2026-05-04 18:44 | 53.53253 | -5.35514 | 39079 ft | 485 kts | 91° |
| 2026-05-04 18:44 | 53.53094 | -5.24190 | 39082 ft | 484 kts | 91° |
| 2026-05-04 18:45 | 53.52827 | -5.12861 | 39083 ft | 484 kts | 92° |
| 2026-05-04 18:45 | 53.52450 | -5.01557 | 39081 ft | 484 kts | 93° |
| 2026-05-04 18:46 | 53.52070 | -4.90394 | 39084 ft | 484 kts | 92° |
| 2026-05-04 18:46 | 53.51689 | -4.79073 | 39077 ft | 485 kts | 93° |
| 2026-05-04 18:47 | 53.51303 | -4.67833 | 39078 ft | 485 kts | 92° |
| 2026-05-04 18:47 | 53.50905 | -4.56511 | 39074 ft | 485 kts | 93° |
| 2026-05-04 18:48 | 53.50496 | -4.45181 | 39067 ft | 486 kts | 93° |
| 2026-05-04 18:48 | 53.50076 | -4.33856 | 39076 ft | 486 kts | 93° |
| 2026-05-04 18:49 | 53.49645 | -4.22513 | 39082 ft | 486 kts | 93° |
| 2026-05-04 18:49 | 53.49205 | -4.11166 | 39075 ft | 487 kts | 94° |
| 2026-05-04 18:50 | 53.48690 | -3.99875 | 39079 ft | 487 kts | 97° |
| 2026-05-04 18:50 | 53.47214 | -3.88869 | 39066 ft | 488 kts | 108° |
| 2026-05-04 18:51 | 53.44929 | -3.78128 | 39081 ft | 489 kts | 109° |
| 2026-05-04 18:51 | 53.42673 | -3.67444 | 39073 ft | 489 kts | 109° |
| 2026-05-04 18:52 | 53.40243 | -3.56793 | 39074 ft | 490 kts | 115° |
| 2026-05-04 18:52 | 53.37245 | -3.46555 | 39075 ft | 490 kts | 116° |
| 2026-05-04 18:53 | 53.34255 | -3.36280 | 39071 ft | 491 kts | 115° |
| 2026-05-04 18:53 | 53.31280 | -3.25979 | 39065 ft | 492 kts | 116° |
| 2026-05-04 18:54 | 53.28290 | -3.15695 | 39068 ft | 492 kts | 116° |
| 2026-05-04 18:54 | 53.25290 | -3.05419 | 39067 ft | 492 kts | 116° |
| 2026-05-04 18:55 | 53.22312 | -2.95261 | 39068 ft | 492 kts | 116° |
| 2026-05-04 18:55 | 53.17777 | -2.79873 | 39060 ft | 492 kts | 116° |
| 2026-05-04 18:56 | 53.14745 | -2.69641 | 39058 ft | 492 kts | 116° |
| 2026-05-04 18:56 | 53.11705 | -2.59423 | 39053 ft | 492 kts | 117° |
| 2026-05-04 18:57 | 53.08675 | -2.49284 | 39053 ft | 492 kts | 117° |
| 2026-05-04 18:57 | 53.05622 | -2.39102 | 39050 ft | 492 kts | 117° |
| 2026-05-04 18:58 | 53.02043 | -2.29544 | 39058 ft | 487 kts | 136° |
| 2026-05-04 18:58 | 52.99374 | -2.26160 | 39049 ft | 482 kts | 149° |
| 2026-05-04 18:58 | 52.96500 | -2.23281 | 39052 ft | 483 kts | 149° |
| 2026-05-04 18:59 | 52.90721 | -2.17468 | 38921 ft | 490 kts | 148° |
| 2026-05-04 18:59 | 52.87818 | -2.14493 | 38596 ft | 489 kts | 148° |
| 2026-05-04 18:59 | 52.84951 | -2.11528 | 38078 ft | 482 kts | 148° |
| 2026-05-04 19:00 | 52.82114 | -2.08577 | 37402 ft | 479 kts | 147° |
| 2026-05-04 19:00 | 52.79305 | -2.05651 | 36750 ft | 476 kts | 147° |
| 2026-05-04 19:00 | 52.76512 | -2.02743 | 36119 ft | 473 kts | 147° |
| 2026-05-04 19:00 | 52.73797 | -1.99920 | 35517 ft | 470 kts | 147° |
| 2026-05-04 19:01 | 52.71066 | -1.97084 | 34918 ft | 466 kts | 147° |
| 2026-05-04 19:01 | 52.68329 | -1.94252 | 34334 ft | 463 kts | 147° |
| 2026-05-04 19:01 | 52.65602 | -1.91438 | 33701 ft | 460 kts | 147° |
| 2026-05-04 19:01 | 52.62889 | -1.88641 | 33016 ft | 458 kts | 148° |
| 2026-05-04 19:02 | 52.60194 | -1.85867 | 32357 ft | 457 kts | 148° |
| 2026-05-04 19:02 | 52.57501 | -1.83098 | 31710 ft | 455 kts | 148° |
| 2026-05-04 19:02 | 52.54805 | -1.80331 | 31107 ft | 459 kts | 148° |
| 2026-05-04 19:02 | 52.52081 | -1.77540 | 30489 ft | 464 kts | 148° |
| 2026-05-04 19:03 | 52.49338 | -1.74732 | 29843 ft | 466 kts | 149° |
| 2026-05-04 19:03 | 52.46576 | -1.71908 | 29128 ft | 465 kts | 149° |
| 2026-05-04 19:03 | 52.43828 | -1.69104 | 28452 ft | 464 kts | 149° |
| 2026-05-04 19:03 | 52.41097 | -1.66321 | 27741 ft | 460 kts | 149° |
| 2026-05-04 19:04 | 52.38399 | -1.63574 | 26942 ft | 448 kts | 150° |
| 2026-05-04 19:04 | 52.35813 | -1.60941 | 26151 ft | 427 kts | 150° |
| 2026-05-04 19:04 | 52.33344 | -1.58433 | 25438 ft | 409 kts | 151° |
| 2026-05-04 19:04 | 52.31002 | -1.56057 | 24751 ft | 394 kts | 152° |
| 2026-05-04 19:05 | 52.28695 | -1.53726 | 24078 ft | 386 kts | 152° |
| 2026-05-04 19:05 | 52.26422 | -1.51433 | 23391 ft | 383 kts | 152° |
| 2026-05-04 19:05 | 52.24158 | -1.49153 | 22631 ft | 381 kts | 152° |
| 2026-05-04 19:05 | 52.21906 | -1.46879 | 21876 ft | 379 kts | 150° |
| 2026-05-04 19:06 | 52.19775 | -1.44370 | 21149 ft | 378 kts | 143° |
| 2026-05-04 19:06 | 52.17778 | -1.41590 | 20443 ft | 376 kts | 141° |
| 2026-05-04 19:06 | 52.15837 | -1.38759 | 19752 ft | 373 kts | 140° |
| 2026-05-04 19:06 | 52.13926 | -1.35975 | 19068 ft | 363 kts | 140° |
| 2026-05-04 19:07 | 52.12053 | -1.33288 | 18398 ft | 355 kts | 141° |
| 2026-05-04 19:07 | 52.10210 | -1.30680 | 17648 ft | 347 kts | 141° |
| 2026-05-04 19:07 | 52.08396 | -1.28140 | 16909 ft | 342 kts | 141° |
| 2026-05-04 19:07 | 52.06599 | -1.25638 | 16187 ft | 339 kts | 141° |
| 2026-05-04 19:08 | 52.04808 | -1.23151 | 15522 ft | 337 kts | 141° |
| 2026-05-04 19:08 | 52.02998 | -1.20645 | 15271 ft | 344 kts | 140° |
| 2026-05-04 19:08 | 52.01183 | -1.18132 | 15066 ft | 342 kts | 141° |
| 2026-05-04 19:08 | 51.99393 | -1.15655 | 15028 ft | 335 kts | 141° |
| 2026-05-04 19:09 | 51.97619 | -1.13206 | 15024 ft | 336 kts | 141° |
| 2026-05-04 19:09 | 51.95837 | -1.10748 | 14885 ft | 333 kts | 141° |
| 2026-05-04 19:09 | 51.94096 | -1.08346 | 14665 ft | 325 kts | 141° |
| 2026-05-04 19:09 | 51.92393 | -1.06000 | 14379 ft | 319 kts | 141° |
| 2026-05-04 19:10 | 51.90730 | -1.03711 | 14091 ft | 317 kts | 141° |
| 2026-05-04 19:10 | 51.88975 | -1.01302 | 13845 ft | 349 kts | 141° |
| 2026-05-04 19:10 | 51.87127 | -0.98768 | 13509 ft | 370 kts | 141° |
| 2026-05-04 19:10 | 51.85265 | -0.95956 | 13065 ft | 366 kts | 131° |
| 2026-05-04 19:11 | 51.83980 | -0.92437 | 12642 ft | 359 kts | 115° |
| 2026-05-04 19:11 | 51.82935 | -0.88804 | 12240 ft | 354 kts | 116° |
| 2026-05-04 19:11 | 51.81888 | -0.85243 | 11827 ft | 346 kts | 116° |
| 2026-05-04 19:11 | 51.80873 | -0.81852 | 11398 ft | 325 kts | 117° |
| 2026-05-04 19:12 | 51.79909 | -0.78667 | 11060 ft | 311 kts | 117° |
| 2026-05-04 19:12 | 51.78006 | -0.72451 | 10330 ft | 307 kts | 117° |
| 2026-05-04 19:12 | 51.77054 | -0.69352 | 9972 ft | 306 kts | 117° |
| 2026-05-04 19:13 | 51.76111 | -0.66287 | 9584 ft | 305 kts | 118° |
| 2026-05-04 19:13 | 51.75167 | -0.63228 | 9198 ft | 303 kts | 117° |
| 2026-05-04 19:13 | 51.74228 | -0.60188 | 8797 ft | 302 kts | 117° |
| 2026-05-04 19:13 | 51.73284 | -0.57180 | 8400 ft | 297 kts | 121° |
| 2026-05-04 19:14 | 51.71951 | -0.54741 | 8097 ft | 287 kts | 148° |
| 2026-05-04 19:14 | 51.70144 | -0.53600 | 8044 ft | 277 kts | 175° |
| 2026-05-04 19:14 | 51.68248 | -0.53923 | 8038 ft | 276 kts | 201° |
| 2026-05-04 19:14 | 51.66668 | -0.55538 | 8020 ft | 273 kts | 225° |
| 2026-05-04 19:15 | 51.65341 | -0.57792 | 8019 ft | 275 kts | 230° |
| 2026-05-04 19:15 | 51.64113 | -0.60076 | 8007 ft | 263 kts | 230° |
| 2026-05-04 19:15 | 51.62970 | -0.62227 | 8003 ft | 250 kts | 230° |
| 2026-05-04 19:15 | 51.61855 | -0.64343 | 8010 ft | 244 kts | 231° |
| 2026-05-04 19:16 | 51.61127 | -0.65726 | 8021 ft | 244 kts | 230° |
| 2026-05-04 19:16 | 51.59689 | -0.68470 | 8014 ft | 240 kts | 231° |
| 2026-05-04 19:16 | 51.58864 | -0.70724 | 8008 ft | 237 kts | 253° |
| 2026-05-04 19:16 | 51.58518 | -0.73351 | 7853 ft | 243 kts | 260° |
| 2026-05-04 19:17 | 51.58327 | -0.75166 | 7573 ft | 244 kts | 260° |
| 2026-05-04 19:17 | 51.58048 | -0.77838 | 7071 ft | 241 kts | 261° |
| 2026-05-04 19:17 | 51.57773 | -0.80489 | 6569 ft | 239 kts | 261° |
| 2026-05-04 19:17 | 51.57501 | -0.83109 | 6059 ft | 237 kts | 261° |
| 2026-05-04 19:18 | 51.57230 | -0.85709 | 5547 ft | 235 kts | 261° |
| 2026-05-04 19:18 | 51.56960 | -0.88263 | 5048 ft | 234 kts | 259° |
| 2026-05-04 19:18 | 51.56347 | -0.90652 | 4500 ft | 234 kts | 231° |
| 2026-05-04 19:18 | 51.55081 | -0.92188 | 4147 ft | 224 kts | 206° |
| 2026-05-04 19:19 | 51.53705 | -0.93282 | 4001 ft | 215 kts | 206° |
| 2026-05-04 19:19 | 51.52413 | -0.94314 | 3973 ft | 200 kts | 206° |
| 2026-05-04 19:19 | 51.51106 | -0.94934 | 4035 ft | 199 kts | 178° |
| 2026-05-04 19:19 | 51.49835 | -0.94253 | 4036 ft | 192 kts | 141° |
| 2026-05-04 19:20 | 51.49006 | -0.92622 | 4011 ft | 189 kts | 122° |
| 2026-05-04 19:20 | 51.48288 | -0.90852 | 4000 ft | 189 kts | 121° |
| 2026-05-04 19:20 | 51.47758 | -0.88978 | 3983 ft | 183 kts | 96° |
| 2026-05-04 19:20 | 51.47682 | -0.86926 | 4012 ft | 188 kts | 91° |
| 2026-05-04 19:21 | 51.47643 | -0.84820 | 4008 ft | 188 kts | 89° |
| 2026-05-04 19:21 | 51.47632 | -0.82731 | 4000 ft | 186 kts | 88° |
| 2026-05-04 19:21 | 51.47634 | -0.80669 | 3990 ft | 184 kts | 88° |
| 2026-05-04 19:21 | 51.47640 | -0.78588 | 3780 ft | 189 kts | 88° |
| 2026-05-04 19:22 | 51.47648 | -0.76502 | 3530 ft | 186 kts | 88° |
| 2026-05-04 19:22 | 51.47655 | -0.74455 | 3280 ft | 180 kts | 88° |
| 2026-05-04 19:22 | 51.47661 | -0.72489 | 3047 ft | 172 kts | 88° |
| 2026-05-04 19:22 | 51.47667 | -0.70648 | 2834 ft | 160 kts | 87° |
| 2026-05-04 19:23 | 51.47675 | -0.68847 | 2622 ft | 162 kts | 87° |
| 2026-05-04 19:23 | 51.47681 | -0.67091 | 2391 ft | 155 kts | 87° |
| 2026-05-04 19:23 | 51.47687 | -0.65358 | 2199 ft | 156 kts | 86° |
| 2026-05-04 19:23 | 51.47694 | -0.63624 | 1978 ft | 155 kts | 86° |
| 2026-05-04 19:24 | 51.47701 | -0.61882 | 1767 ft | 154 kts | 87° |
| 2026-05-04 19:24 | 51.47706 | -0.60161 | 1554 ft | 154 kts | 86° |
| 2026-05-04 19:24 | 51.47713 | -0.58443 | 1340 ft | 156 kts | 86° |
| 2026-05-04 19:24 | 51.47718 | -0.56743 | 1120 ft | 144 kts | 86° |
| 2026-05-04 19:25 | 51.47723 | -0.55237 | 940 ft | 126 kts | 86° |
| 2026-05-04 19:25 | 51.47728 | -0.53883 | 775 ft | 122 kts | 85° |
| 2026-05-04 19:25 | 51.47734 | -0.52528 | 619 ft | 121 kts | 86° |
| 2026-05-04 19:25 | 51.47741 | -0.51150 | 442 ft | 124 kts | 87° |
| 2026-05-04 19:26 | 51.47737 | -0.49750 | 282 ft | 129 kts | 87° |
| 2026-05-04 19:26 | 51.47750 | -0.48339 | 140 ft | 125 kts | 88° |
| 2026-05-04 19:26 | 51.47757 | -0.47017 | 95 ft | 103 kts | 90° |
| 2026-05-04 19:26 | 51.47759 | -0.46166 | 94 ft | 50 kts | 87° |
| 2026-05-04 19:27 | 51.47760 | -0.45828 | 91 ft | 28 kts | 90° |
| 2026-05-04 19:27 | 51.47754 | -0.45540 | 92 ft | 17 kts | 110° |
| 2026-05-04 19:27 | 51.47665 | -0.45468 | 92 ft | 14 kts | 174° |
| 2026-05-04 19:27 | 51.47549 | -0.45468 | 90 ft | 14 kts | 192° |
| 2026-05-04 19:28 | 51.47508 | -0.45587 | 94 ft | 15 kts | 270° |
| 2026-05-04 19:28 | 51.47511 | -0.45741 | 94 ft | 16 kts | 275° |
| 2026-05-04 19:28 | 51.47516 | -0.45886 | 90 ft | 9 kts | 271° |
| 2026-05-04 19:28 | 51.47517 | -0.46045 | 91 ft | 21 kts | 270° |
| 2026-05-04 19:29 | 51.47516 | -0.46243 | 90 ft | 18 kts | 269° |
| 2026-05-04 19:29 | 51.47516 | -0.46496 | 91 ft | 24 kts | 270° |
| 2026-05-04 19:29 | 51.47512 | -0.46691 | 94 ft | 13 kts | 264° |
| 2026-05-04 19:29 | 51.47496 | -0.46838 | 94 ft | 10 kts | 266° |
| 2026-05-04 19:30 | 51.47494 | -0.46955 | 93 ft | 8 kts | 269° |
| 2026-05-04 19:30 | 51.47493 | -0.47084 | 91 ft | 16 kts | 270° |
| 2026-05-04 19:30 | 51.47491 | -0.47274 | 91 ft | 14 kts | 269° |
| 2026-05-04 19:30 | 51.47490 | -0.47469 | 91 ft | 20 kts | 270° |
| 2026-05-04 19:31 | 51.47490 | -0.47613 | 92 ft | 12 kts | 269° |
| 2026-05-04 19:31 | 51.47489 | -0.47794 | 93 ft | 20 kts | 270° |
| 2026-05-04 19:31 | 51.47489 | -0.48003 | 93 ft | 18 kts | 270° |
| 2026-05-04 19:31 | 51.47488 | -0.48187 | 93 ft | 19 kts | 269° |
| 2026-05-04 19:32 | 51.47472 | -0.48337 | 94 ft | 11 kts | 223° |
| 2026-05-04 19:32 | 51.47385 | -0.48358 | 94 ft | 16 kts | 181° |
| 2026-05-04 19:32 | 51.47283 | -0.48357 | 94 ft | 16 kts | 178° |
| 2026-05-04 19:32 | 51.47177 | -0.48356 | 94 ft | 11 kts | 180° |
| 2026-05-04 19:33 | 51.47079 | -0.48356 | 94 ft | 13 kts | 180° |
| 2026-05-04 19:33 | 51.47004 | -0.48357 | 93 ft | 12 kts | 182° |
| 2026-05-04 19:33 | 51.46952 | -0.48358 | 93 ft | 1 kts | 178° |
| 2026-05-04 19:33 | 51.46939 | -0.48357 | 92 ft | 3 kts | 177° |
| 2026-05-04 19:34 | 51.46923 | -0.48344 | 94 ft | 2 kts | 126° |
| 2026-05-04 19:34 | 51.46918 | -0.48304 | 95 ft | 8 kts | 100° |
| 2026-05-04 19:34 | 51.46916 | -0.48255 | 91 ft | 5 kts | 90° |
| 2026-05-04 19:34 | 51.46916 | -0.48232 | 94 ft | 0 kts | 90° |
| 2026-05-04 19:35 | 51.46916 | -0.48230 | 94 ft | 0 kts | 90° |